Observation data for Hobbs on 03/24/2019      Previous  Date  Next       Current Mesonet Observations  Soil Data  Daily Summary Page  Observations in Plain Language
KHO1 240500Z 22007KT 12/M08 A3006 RMK A01 T01161082  RH  024%=      5-min Rain = 0
KHO1 240501Z 22007KT 12/M08 A3006 RMK A01 T01151082  RH  024%=      5-min Rain = 0
KHO1 240502Z 23007KT 12/M08 A3006 RMK A01 T01151083  RH  024%=      5-min Rain = 0
KHO1 240503Z 23007KT 12/M08 A3006 RMK A01 T01171084  RH  024%=      5-min Rain = 0
KHO1 240504Z 22006KT 12/M08 A3006 RMK A01 T01181084  RH  024%=      5-min Rain = 0
KHO1 240505Z 23006KT 12/M08 A3006 RMK A01 T01181084  RH  023%=      5-min Rain = 0
KHO1 240506Z 23006KT 12/M09 A3006 RMK A01 T01181085  RH  023%=      5-min Rain = 0
KHO1 240507Z 23006KT 12/M09 A3006 RMK A01 T01181085  RH  023%=      5-min Rain = 0
KHO1 240508Z 23006KT 12/M08 A3006 RMK A01 T01171084  RH  024%=      5-min Rain = 0
KHO1 240509Z 23007KT 12/M09 A3006 RMK A01 T01171086  RH  023%=      5-min Rain = 0
KHO1 240510Z 23007KT 12/M09 A3006 RMK A01 T01181086  RH  023%=      5-min Rain = 0
KHO1 240511Z 23007KT 12/M09 A3006 RMK A01 T01181087  RH  023%=      5-min Rain = 0
KHO1 240512Z 24007KT 12/M09 A3006 RMK A01 T01181088  RH  023%=      5-min Rain = 0
KHO1 240513Z 24007KT 12/M09 A3006 RMK A01 T01181087  RH  023%=      5-min Rain = 0
KHO1 240514Z 24007KT 12/M09 A3006 RMK A01 T01171085  RH  023%=      5-min Rain = 0
KHO1 240515Z 23007KT 12/M08 A3006 RMK A01 T01151083  RH  024%=      5-min Rain = 0
KHO1 240516Z 23007KT 11/M08 A3006 RMK A01 T01131083  RH  024%=      5-min Rain = 0
KHO1 240517Z 23007KT 11/M08 A3006 RMK A01 T01121083  RH  025%=      5-min Rain = 0
KHO1 240518Z 22007KT 11/M08 A3006 RMK A01 T01111082  RH  025%=      5-min Rain = 0
KHO1 240519Z 20006KT 11/M08 A3006 RMK A01 T01081076  RH  027%=      5-min Rain = 0
KHO1 240520Z 20007KT 10/M07 A3006 RMK A01 T01041074  RH  028%=      5-min Rain = 0
KHO1 240521Z 21007KT 10/M07 A3006 RMK A01 T01011073  RH  029%=      5-min Rain = 0
KHO1 240522Z 22007KT 10/M07 A3006 RMK A01 T01001074  RH  029%=      5-min Rain = 0
KHO1 240523Z 23008KT 10/M08 A3006 RMK A01 T01011076  RH  028%=      5-min Rain = 0
KHO1 240524Z 23008KT 10/M08 A3006 RMK A01 T01031078  RH  027%=      5-min Rain = 0
KHO1 240525Z 23009KT 11/M08 A3006 RMK A01 T01061081  RH  026%=      5-min Rain = 0
KHO1 240526Z 24008KT 11/M08 A3006 RMK A01 T01091081  RH  026%=      5-min Rain = 0
KHO1 240527Z 24008KT 11/M08 A3006 RMK A01 T01101080  RH  026%=      5-min Rain = 0
KHO1 240528Z 24008KT 11/M08 A3006 RMK A01 T01111079  RH  026%=      5-min Rain = 0
KHO1 240529Z 24008KT 11/M08 A3006 RMK A01 T01101079  RH  026%=      5-min Rain = 0
KHO1 240530Z 24008KT 11/M08 A3006 RMK A01 T01101078  RH  026%=      5-min Rain = 0
KHO1 240531Z 24008KT 11/M08 A3006 RMK A01 T01101078  RH  026%=      5-min Rain = 0
KHO1 240532Z 23008KT 11/M08 A3006 RMK A01 T01091077  RH  026%=      5-min Rain = 0
KHO1 240533Z 23008KT 11/M08 A3006 RMK A01 T01081075  RH  027%=      5-min Rain = 0
KHO1 240534Z 23008KT 11/M08 A3006 RMK A01 T01071075  RH  027%=      5-min Rain = 0
KHO1 240535Z 23007KT 11/M08 A3006 RMK A01 T01071075  RH  027%=      5-min Rain = 0
KHO1 240536Z 23008KT 11/M08 A3006 RMK A01 T01071076  RH  027%=      5-min Rain = 0
KHO1 240537Z 24007KT 11/M08 A3006 RMK A01 T01071075  RH  027%=      5-min Rain = 0
KHO1 240538Z 24008KT 11/M07 A3006 RMK A01 T01061074  RH  028%=      5-min Rain = 0
KHO1 240539Z 24008KT 11/M07 A3006 RMK A01 T01051074  RH  028%=      5-min Rain = 0
KHO1 240540Z 24008KT 10/M07 A3006 RMK A01 T01041074  RH  028%=      5-min Rain = 0
KHO1 240541Z 24008KT 10/M07 A3006 RMK A01 T01031074  RH  028%=      5-min Rain = 0
KHO1 240542Z 24008KT 10/M07 A3006 RMK A01 T01031074  RH  028%=      5-min Rain = 0
KHO1 240543Z 24008KT 10/M07 A3006 RMK A01 T01021073  RH  028%=      5-min Rain = 0
KHO1 240544Z 24008KT 10/M07 A3006 RMK A01 T01011072  RH  029%=      5-min Rain = 0
KHO1 240545Z 24007KT 10/M07 A3006 RMK A01 T00991071  RH  029%=      5-min Rain = 0
KHO1 240546Z 23006KT 10/M07 A3006 RMK A01 T00981071  RH  030%=      5-min Rain = 0
KHO1 240547Z 23006KT 10/M07 A3006 RMK A01 T00971072  RH  030%=      5-min Rain = 0
KHO1 240548Z 23005KT 10/M07 A3006 RMK A01 T00971072  RH  030%=      5-min Rain = 0
KHO1 240549Z 23006KT 10/M07 A3006 RMK A01 T00961072  RH  030%=      5-min Rain = 0
KHO1 240550Z 23006KT 10/M07 A3006 RMK A01 T00961073  RH  030%=      5-min Rain = 0
KHO1 240551Z 23006KT 10/M07 A3006 RMK A01 T00961073  RH  030%=      5-min Rain = 0
KHO1 240552Z 24006KT 10/M07 A3006 RMK A01 T00951072  RH  030%=      5-min Rain = 0
KHO1 240553Z 24006KT 10/M07 A3006 RMK A01 T00951073  RH  030%=      5-min Rain = 0
KHO1 240554Z 24006KT 10/M07 A3006 RMK A01 T00951073  RH  030%=      5-min Rain = 0
KHO1 240555Z 24007KT 10/M07 A3006 RMK A01 T00951072  RH  030%=      5-min Rain = 0
KHO1 240556Z 24007KT 10/M07 A3006 RMK A01 T00951072  RH  030%=      5-min Rain = 0
KHO1 240557Z 25007KT 10/M07 A3006 RMK A01 T00951072  RH  030%=      5-min Rain = 0
KHO1 240558Z 25007KT 09/M07 A3006 RMK A01 T00941072  RH  030%=      5-min Rain = 0
KHO1 240559Z 25007KT 09/M07 A3006 RMK A01 T00931071  RH  031%=      5-min Rain = 0
KHO1 240600Z 25006KT 09/M07 A3006 RMK A01 T00921070  RH  031%=      5-min Rain = 0
KHO1 240601Z 25005KT 09/M07 A3006 RMK A01 T00911069  RH  032%=      5-min Rain = 0
KHO1 240602Z 25005KT 09/M07 A3006 RMK A01 T00901070  RH  032%=      5-min Rain = 0
KHO1 240603Z 25005KT 09/M07 A3006 RMK A01 T00891071  RH  032%=      5-min Rain = 0
KHO1 240604Z 26005KT 09/M07 A3006 RMK A01 T00891071  RH  032%=      5-min Rain = 0
KHO1 240605Z 26005KT 09/M07 A3006 RMK A01 T00881071  RH  032%=      5-min Rain = 0
KHO1 240606Z 27005KT 09/M07 A3006 RMK A01 T00881071  RH  032%=      5-min Rain = 0
KHO1 240607Z 27004KT 09/M07 A3006 RMK A01 T00881071  RH  032%=      5-min Rain = 0
KHO1 240608Z 27005KT 09/M07 A3006 RMK A01 T00871071  RH  032%=      5-min Rain = 0
KHO1 240609Z 27005KT 09/M07 A3006 RMK A01 T00871070  RH  032%=      5-min Rain = 0
KHO1 240610Z 26005KT 09/M07 A3006 RMK A01 T00861070  RH  032%=      5-min Rain = 0
KHO1 240611Z 26004KT 09/M07 A3006 RMK A01 T00851071  RH  032%=      5-min Rain = 0
KHO1 240612Z 26004KT 09/M07 A3006 RMK A01 T00851070  RH  033%=      5-min Rain = 0
KHO1 240613Z 26005KT 09/M07 A3006 RMK A01 T00851070  RH  033%=      5-min Rain = 0
KHO1 240614Z 26005KT 09/M07 A3006 RMK A01 T00851071  RH  032%=      5-min Rain = 0
KHO1 240615Z 26005KT 09/M07 A3006 RMK A01 T00851070  RH  033%=      5-min Rain = 0
KHO1 240616Z 27005KT 08/M07 A3006 RMK A01 T00841070  RH  033%=      5-min Rain = 0
KHO1 240617Z 27005KT 09/M07 A3006 RMK A01 T00851071  RH  032%=      5-min Rain = 0
KHO1 240618Z 27005KT 09/M07 A3006 RMK A01 T00851071  RH  032%=      5-min Rain = 0
KHO1 240619Z 27006KT 09/M07 A3006 RMK A01 T00851073  RH  032%=      5-min Rain = 0
KHO1 240620Z 27006KT 09/M08 A3006 RMK A01 T00871076  RH  031%=      5-min Rain = 0
KHO1 240621Z 27007KT 09/M08 A3006 RMK A01 T00901076  RH  030%=      5-min Rain = 0
KHO1 240622Z 27007KT 09/M08 A3006 RMK A01 T00921076  RH  030%=      5-min Rain = 0
KHO1 240623Z 27008KT 09/M08 A3006 RMK A01 T00941077  RH  029%=      5-min Rain = 0
KHO1 240624Z 27008KT 10/M08 A3006 RMK A01 T00961078  RH  029%=      5-min Rain = 0
KHO1 240625Z 27008KT 10/M08 A3006 RMK A01 T00971078  RH  028%=      5-min Rain = 0
KHO1 240626Z 28008KT 10/M08 A3006 RMK A01 T00981078  RH  028%=      5-min Rain = 0
KHO1 240627Z 27007KT 10/M08 A3006 RMK A01 T00981078  RH  028%=      5-min Rain = 0
KHO1 240628Z 27007KT 10/M08 A3006 RMK A01 T00991079  RH  028%=      5-min Rain = 0
KHO1 240629Z 27008KT 10/M08 A3005 RMK A01 T00991079  RH  028%=      5-min Rain = 0
KHO1 240630Z 27008KT 10/M08 A3005 RMK A01 T00991078  RH  028%=      5-min Rain = 0
KHO1 240631Z 27008KT 10/M08 A3005 RMK A01 T00991079  RH  028%=      5-min Rain = 0
KHO1 240632Z 27008KT 10/M08 A3005 RMK A01 T01001079  RH  028%=      5-min Rain = 0
KHO1 240633Z 27009KT 10/M08 A3005 RMK A01 T01001080  RH  027%=      5-min Rain = 0
KHO1 240634Z 27009KT 10/M08 A3005 RMK A01 T01001081  RH  027%=      5-min Rain = 0
KHO1 240635Z 27009KT 10/M08 A3005 RMK A01 T01011080  RH  027%=      5-min Rain = 0
KHO1 240636Z 27009KT 10/M08 A3005 RMK A01 T01011081  RH  027%=      5-min Rain = 0
KHO1 240637Z 27009KT 10/M08 A3005 RMK A01 T01011080  RH  027%=      5-min Rain = 0
KHO1 240638Z 27009KT 10/M08 A3005 RMK A01 T01021081  RH  027%=      5-min Rain = 0
KHO1 240639Z 27008KT 10/M08 A3005 RMK A01 T01021082  RH  027%=      5-min Rain = 0
KHO1 240640Z 27009KT 10/M08 A3005 RMK A01 T01031082  RH  026%=      5-min Rain = 0
KHO1 240641Z 27008KT 10/M08 A3005 RMK A01 T01031081  RH  026%=      5-min Rain = 0
KHO1 240642Z 27009KT 10/M08 A3005 RMK A01 T01041083  RH  026%=      5-min Rain = 0
KHO1 240643Z 27009KT 11/M08 A3005 RMK A01 T01051083  RH  026%=      5-min Rain = 0
KHO1 240644Z 27009KT 11/M08 A3005 RMK A01 T01061084  RH  026%=      5-min Rain = 0
KHO1 240645Z 27009KT 11/M08 A3005 RMK A01 T01061084  RH  025%=      5-min Rain = 0
KHO1 240646Z 27008KT 11/M09 A3005 RMK A01 T01071085  RH  025%=      5-min Rain = 0
KHO1 240647Z 27009KT 11/M09 A3005 RMK A01 T01081085  RH  025%=      5-min Rain = 0
KHO1 240648Z 27008KT 11/M09 A3005 RMK A01 T01091086  RH  025%=      5-min Rain = 0
KHO1 240649Z 27008KT 11/M09 A3005 RMK A01 T01101086  RH  024%=      5-min Rain = 0
KHO1 240650Z 27008KT 11/M09 A3005 RMK A01 T01111086  RH  024%=      5-min Rain = 0
KHO1 240651Z 27008KT 11/M09 A3005 RMK A01 T01111087  RH  024%=      5-min Rain = 0
KHO1 240652Z 27008KT 11/M09 A3005 RMK A01 T01111087  RH  024%=      5-min Rain = 0
KHO1 240653Z 27008KT 11/M09 A3005 RMK A01 T01111087  RH  024%=      5-min Rain = 0
KHO1 240654Z 27008KT 11/M09 A3005 RMK A01 T01111087  RH  024%=      5-min Rain = 0
KHO1 240655Z 27007KT 11/M09 A3005 RMK A01 T01121087  RH  024%=      5-min Rain = 0
KHO1 240656Z 28006KT 11/M09 A3005 RMK A01 T01111087  RH  024%=      5-min Rain = 0
KHO1 240657Z 27006KT 11/M09 A3005 RMK A01 T01101087  RH  024%=      5-min Rain = 0
KHO1 240658Z 28006KT 11/M09 A3005 RMK A01 T01091086  RH  025%=      5-min Rain = 0
KHO1 240659Z 28006KT 11/M09 A3005 RMK A01 T01081086  RH  025%=      5-min Rain = 0
KHO1 240700Z 28006KT 11/M09 A3005 RMK A01 T01081085  RH  025%=      5-min Rain = 0
KHO1 240701Z 28006KT 11/M08 A3005 RMK A01 T01071084  RH  025%=      5-min Rain = 0
KHO1 240702Z 28006KT 11/M08 A3006 RMK A01 T01061084  RH  026%=      5-min Rain = 0
KHO1 240703Z 28006KT 11/M08 A3005 RMK A01 T01051083  RH  026%=      5-min Rain = 0
KHO1 240704Z 27006KT 10/M08 A3005 RMK A01 T01041083  RH  026%=      5-min Rain = 0
KHO1 240705Z 27006KT 10/M08 A3006 RMK A01 T01031083  RH  026%=      5-min Rain = 0
KHO1 240706Z 27006KT 10/M08 A3006 RMK A01 T01021083  RH  026%=      5-min Rain = 0
KHO1 240707Z 28006KT 10/M08 A3006 RMK A01 T01021082  RH  027%=      5-min Rain = 0
KHO1 240708Z 27005KT 10/M08 A3006 RMK A01 T01011082  RH  027%=      5-min Rain = 0
KHO1 240709Z 27005KT 10/M08 A3006 RMK A01 T01001082  RH  027%=      5-min Rain = 0
KHO1 240710Z 27005KT 10/M08 A3006 RMK A01 T00991082  RH  027%=      5-min Rain = 0
KHO1 240711Z 27005KT 10/M08 A3006 RMK A01 T00991082  RH  027%=      5-min Rain = 0
KHO1 240712Z 26005KT 10/M08 A3006 RMK A01 T00991082  RH  027%=      5-min Rain = 0
KHO1 240713Z 26004KT 10/M08 A3006 RMK A01 T00991082  RH  027%=      5-min Rain = 0
KHO1 240714Z 26004KT 10/M08 A3006 RMK A01 T00991081  RH  027%=      5-min Rain = 0
KHO1 240715Z 26004KT 10/M08 A3006 RMK A01 T00981080  RH  028%=      5-min Rain = 0
KHO1 240716Z 25004KT 10/M08 A3006 RMK A01 T00971081  RH  028%=      5-min Rain = 0
KHO1 240717Z 23003KT 10/M08 A3006 RMK A01 T00961081  RH  028%=      5-min Rain = 0
KHO1 240718Z 19004KT 09/M08 A3006 RMK A01 T00921075  RH  030%=      5-min Rain = 0
KHO1 240719Z 17007KT 09/M07 A3006 RMK A01 T00851072  RH  032%=      5-min Rain = 0
KHO1 240720Z 18007KT 09/M07 A3006 RMK A01 T00851069  RH  033%=      5-min Rain = 0
KHO1 240721Z 20006KT 08/M07 A3006 RMK A01 T00841070  RH  033%=      5-min Rain = 0
KHO1 240722Z 18007KT 08/M07 A3006 RMK A01 T00841070  RH  033%=      5-min Rain = 0
KHO1 240723Z 19008KT 08/M07 A3006 RMK A01 T00831069  RH  033%=      5-min Rain = 0
KHO1 240724Z 18008KT 08/M07 A3006 RMK A01 T00821068  RH  034%=      5-min Rain = 0
KHO1 240725Z 18008KT 08/M07 A3006 RMK A01 T00811068  RH  034%=      5-min Rain = 0
KHO1 240726Z 20007KT 08/M07 A3006 RMK A01 T00811069  RH  034%=      5-min Rain = 0
KHO1 240727Z 19006KT 08/M07 A3006 RMK A01 T00811068  RH  034%=      5-min Rain = 0
KHO1 240728Z 18006KT 08/M07 A3006 RMK A01 T00801067  RH  035%=      5-min Rain = 0
KHO1 240729Z 19006KT 08/M07 A3006 RMK A01 T00791067  RH  035%=      5-min Rain = 0
KHO1 240730Z 20006KT 08/M07 A3006 RMK A01 T00791066  RH  035%=      5-min Rain = 0
KHO1 240731Z 19006KT 08/M07 A3006 RMK A01 T00781065  RH  035%=      5-min Rain = 0
KHO1 240732Z 20006KT 08/M07 A3006 RMK A01 T00771065  RH  036%=      5-min Rain = 0
KHO1 240733Z 20006KT 08/M07 A3006 RMK A01 T00761065  RH  036%=      5-min Rain = 0
KHO1 240734Z 20006KT 08/M07 A3006 RMK A01 T00751065  RH  036%=      5-min Rain = 0
KHO1 240735Z 20006KT 08/M06 A3006 RMK A01 T00751064  RH  037%=      5-min Rain = 0
KHO1 240736Z 20006KT 07/M06 A3006 RMK A01 T00741064  RH  037%=      5-min Rain = 0
KHO1 240737Z 20007KT 07/M06 A3006 RMK A01 T00731064  RH  037%=      5-min Rain = 0
KHO1 240738Z 20007KT 07/M06 A3006 RMK A01 T00731064  RH  037%=      5-min Rain = 0
KHO1 240739Z 21006KT 07/M06 A3006 RMK A01 T00731064  RH  037%=      5-min Rain = 0
KHO1 240740Z 21006KT 07/M06 A3006 RMK A01 T00741064  RH  037%=      5-min Rain = 0
KHO1 240741Z 20006KT 07/M06 A3006 RMK A01 T00741064  RH  037%=      5-min Rain = 0
KHO1 240742Z 20005KT 07/M06 A3006 RMK A01 T00731063  RH  037%=      5-min Rain = 0
KHO1 240743Z 21005KT 07/M06 A3007 RMK A01 T00721064  RH  037%=      5-min Rain = 0
KHO1 240744Z 22005KT 07/M06 A3007 RMK A01 T00721064  RH  037%=      5-min Rain = 0
KHO1 240745Z 22005KT 07/M06 A3007 RMK A01 T00731064  RH  037%=      5-min Rain = 0
KHO1 240746Z 22005KT 07/M07 A3007 RMK A01 T00741066  RH  036%=      5-min Rain = 0
KHO1 240747Z 23005KT 08/M07 A3007 RMK A01 T00761068  RH  035%=      5-min Rain = 0
KHO1 240748Z 23005KT 08/M07 A3007 RMK A01 T00771068  RH  035%=      5-min Rain = 0
KHO1 240749Z 23004KT 08/M07 A3007 RMK A01 T00781068  RH  035%=      5-min Rain = 0
KHO1 240750Z 23004KT 08/M07 A3007 RMK A01 T00771067  RH  035%=      5-min Rain = 0
KHO1 240751Z 23003KT 08/M07 A3007 RMK A01 T00771067  RH  035%=      5-min Rain = 0
KHO1 240752Z 24002KT 08/M07 A3007 RMK A01 T00771066  RH  036%=      5-min Rain = 0
KHO1 240753Z 24002KT 08/M07 A3007 RMK A01 T00761065  RH  036%=      5-min Rain = 0
KHO1 240754Z 24002KT 08/M07 A3007 RMK A01 T00761067  RH  036%=      5-min Rain = 0
KHO1 240755Z 24003KT 08/M07 A3007 RMK A01 T00761068  RH  035%=      5-min Rain = 0
KHO1 240756Z 24003KT 08/M07 A3007 RMK A01 T00761067  RH  036%=      5-min Rain = 0
KHO1 240757Z 24003KT 08/M07 A3007 RMK A01 T00761066  RH  036%=      5-min Rain = 0
KHO1 240758Z 24003KT 08/M07 A3007 RMK A01 T00771066  RH  036%=      5-min Rain = 0
KHO1 240759Z 22004KT 08/M07 A3007 RMK A01 T00771066  RH  036%=      5-min Rain = 0
KHO1 240800Z 22003KT 08/M07 A3007 RMK A01 T00761066  RH  036%=      5-min Rain = 0
KHO1 240801Z 22003KT 08/M07 A3007 RMK A01 T00761065  RH  036%=      5-min Rain = 0
KHO1 240802Z 23003KT 08/M07 A3007 RMK A01 T00761066  RH  036%=      5-min Rain = 0
KHO1 240803Z 23004KT 08/M07 A3006 RMK A01 T00771067  RH  035%=      5-min Rain = 0
KHO1 240804Z 23004KT 08/M07 A3006 RMK A01 T00771067  RH  035%=      5-min Rain = 0
KHO1 240805Z 23004KT 08/M07 A3006 RMK A01 T00781067  RH  035%=      5-min Rain = 0
KHO1 240806Z 24004KT 08/M07 A3006 RMK A01 T00781068  RH  035%=      5-min Rain = 0
KHO1 240807Z 24003KT 08/M07 A3006 RMK A01 T00781068  RH  035%=      5-min Rain = 0
KHO1 240808Z 24003KT 08/M07 A3006 RMK A01 T00781067  RH  035%=      5-min Rain = 0
KHO1 240809Z 24003KT 08/M07 A3006 RMK A01 T00771067  RH  035%=      5-min Rain = 0
KHO1 240810Z 24003KT 08/M07 A3006 RMK A01 T00771068  RH  035%=      5-min Rain = 0
KHO1 240811Z 25003KT 08/M07 A3006 RMK A01 T00771068  RH  035%=      5-min Rain = 0
KHO1 240812Z 25003KT 08/M07 A3006 RMK A01 T00771067  RH  035%=      5-min Rain = 0
KHO1 240813Z 25002KT 08/M07 A3006 RMK A01 T00761065  RH  036%=      5-min Rain = 0
KHO1 240814Z 26002KT 08/M06 A3006 RMK A01 T00761063  RH  037%=      5-min Rain = 0
KHO1 240815Z 26002KT 08/M06 A3006 RMK A01 T00751063  RH  037%=      5-min Rain = 0
KHO1 240816Z 26003KT 07/M06 A3006 RMK A01 T00741064  RH  037%=      5-min Rain = 0
KHO1 240817Z 26003KT 07/M06 A3006 RMK A01 T00741062  RH  037%=      5-min Rain = 0
KHO1 240818Z 26003KT 07/M06 A3006 RMK A01 T00741063  RH  037%=      5-min Rain = 0
KHO1 240819Z 27003KT 07/M06 A3006 RMK A01 T00741064  RH  037%=      5-min Rain = 0
KHO1 240820Z 27003KT 07/M07 A3006 RMK A01 T00741067  RH  036%=      5-min Rain = 0
KHO1 240821Z 27004KT 07/M07 A3006 RMK A01 T00741066  RH  036%=      5-min Rain = 0
KHO1 240822Z 28003KT 07/M07 A3006 RMK A01 T00741066  RH  036%=      5-min Rain = 0
KHO1 240823Z 28003KT 08/M07 A3006 RMK A01 T00751065  RH  036%=      5-min Rain = 0
KHO1 240824Z 28003KT 08/M07 A3006 RMK A01 T00761065  RH  036%=      5-min Rain = 0
KHO1 240825Z 27004KT 08/M06 A3006 RMK A01 T00761063  RH  037%=      5-min Rain = 0
KHO1 240826Z 27004KT 08/M06 A3006 RMK A01 T00761063  RH  036%=      5-min Rain = 0
KHO1 240827Z 27004KT 08/M06 A3006 RMK A01 T00761063  RH  036%=      5-min Rain = 0
KHO1 240828Z 28005KT 08/M07 A3006 RMK A01 T00761065  RH  036%=      5-min Rain = 0
KHO1 240829Z 28005KT 08/M07 A3006 RMK A01 T00761065  RH  036%=      5-min Rain = 0
KHO1 240830Z 28004KT 08/M06 A3006 RMK A01 T00751063  RH  037%=      5-min Rain = 0
KHO1 240831Z 29004KT 07/M06 A3006 RMK A01 T00731062  RH  037%=      5-min Rain = 0
KHO1 240832Z 28003KT 07/M06 A3006 RMK A01 T00721062  RH  038%=      5-min Rain = 0
KHO1 240833Z 28004KT 07/M06 A3006 RMK A01 T00711064  RH  038%=      5-min Rain = 0
KHO1 240834Z 28004KT 07/M06 A3006 RMK A01 T00711063  RH  038%=      5-min Rain = 0
KHO1 240835Z 28004KT 07/M06 A3006 RMK A01 T00701062  RH  039%=      5-min Rain = 0
KHO1 240836Z 28003KT 07/M06 A3006 RMK A01 T00691061  RH  039%=      5-min Rain = 0
KHO1 240837Z 29003KT 07/M06 A3006 RMK A01 T00681059  RH  040%=      5-min Rain = 0
KHO1 240838Z 28003KT 07/M06 A3006 RMK A01 T00671058  RH  041%=      5-min Rain = 0
KHO1 240839Z 28003KT 07/M06 A3006 RMK A01 T00651060  RH  040%=      5-min Rain = 0
KHO1 240840Z 28004KT 07/M06 A3005 RMK A01 T00651062  RH  040%=      5-min Rain = 0
KHO1 240841Z 28003KT 07/M06 A3006 RMK A01 T00651060  RH  040%=      5-min Rain = 0
KHO1 240842Z 28004KT 06/M06 A3006 RMK A01 T00641059  RH  041%=      5-min Rain = 0
KHO1 240843Z 28004KT 06/M06 A3006 RMK A01 T00641059  RH  041%=      5-min Rain = 0
KHO1 240844Z 28005KT 06/M06 A3006 RMK A01 T00641060  RH  041%=      5-min Rain = 0
KHO1 240845Z 28006KT 06/M06 A3006 RMK A01 T00641060  RH  041%=      5-min Rain = 0
KHO1 240846Z 28006KT 06/M06 A3006 RMK A01 T00641061  RH  040%=      5-min Rain = 0
KHO1 240847Z 28005KT 07/M06 A3006 RMK A01 T00651060  RH  040%=      5-min Rain = 0
KHO1 240848Z 28005KT 07/M06 A3006 RMK A01 T00651060  RH  040%=      5-min Rain = 0
KHO1 240849Z 29005KT 07/M06 A3005 RMK A01 T00651060  RH  040%=      5-min Rain = 0
KHO1 240850Z 28005KT 07/M06 A3006 RMK A01 T00661059  RH  040%=      5-min Rain = 0
KHO1 240851Z 28005KT 07/M06 A3005 RMK A01 T00651057  RH  041%=      5-min Rain = 0
KHO1 240852Z 28005KT 07/M06 A3005 RMK A01 T00651057  RH  042%=      5-min Rain = 0
KHO1 240853Z 29004KT 06/M06 A3005 RMK A01 T00631056  RH  042%=      5-min Rain = 0
KHO1 240854Z 29004KT 06/M06 A3005 RMK A01 T00621057  RH  042%=      5-min Rain = 0
KHO1 240855Z 29005KT 06/M06 A3005 RMK A01 T00631061  RH  041%=      5-min Rain = 0
KHO1 240856Z 30005KT 06/M06 A3005 RMK A01 T00641061  RH  040%=      5-min Rain = 0
KHO1 240857Z 30006KT 07/M06 A3005 RMK A01 T00651062  RH  040%=      5-min Rain = 0
KHO1 240858Z 31007KT 07/M06 A3005 RMK A01 T00661062  RH  040%=      5-min Rain = 0
KHO1 240859Z 31008KT 07/M06 A3005 RMK A01 T00661062  RH  039%=      5-min Rain = 0
KHO1 240900Z 30007KT 07/M06 A3005 RMK A01 T00671062  RH  039%=      5-min Rain = 0
KHO1 240901Z 30006KT 07/M06 A3005 RMK A01 T00661061  RH  040%=      5-min Rain = 0
KHO1 240902Z 30005KT 07/M06 A3005 RMK A01 T00661061  RH  040%=      5-min Rain = 0
KHO1 240903Z 30006KT 07/M06 A3005 RMK A01 T00661061  RH  040%=      5-min Rain = 0
KHO1 240904Z 30006KT 07/M06 A3005 RMK A01 T00661062  RH  040%=      5-min Rain = 0
KHO1 240905Z 29006KT 07/M06 A3005 RMK A01 T00661060  RH  040%=      5-min Rain = 0
KHO1 240906Z 29006KT 07/M06 A3005 RMK A01 T00661061  RH  040%=      5-min Rain = 0
KHO1 240907Z 29006KT 07/M06 A3005 RMK A01 T00661061  RH  040%=      5-min Rain = 0
KHO1 240908Z 29006KT 07/M06 A3005 RMK A01 T00661061  RH  040%=      5-min Rain = 0
KHO1 240909Z 29006KT 07/M06 A3005 RMK A01 T00661062  RH  040%=      5-min Rain = 0
KHO1 240910Z 30007KT 07/M06 A3005 RMK A01 T00661062  RH  039%=      5-min Rain = 0
KHO1 240911Z 30007KT 07/M06 A3005 RMK A01 T00671062  RH  039%=      5-min Rain = 0
KHO1 240912Z 30006KT 07/M06 A3005 RMK A01 T00671063  RH  039%=      5-min Rain = 0
KHO1 240913Z 30006KT 07/M07 A3005 RMK A01 T00671065  RH  038%=      5-min Rain = 0
KHO1 240914Z 29006KT 07/M06 A3005 RMK A01 T00681064  RH  038%=      5-min Rain = 0
KHO1 240915Z 30006KT 07/M06 A3005 RMK A01 T00691064  RH  038%=      5-min Rain = 0
KHO1 240916Z 30005KT 07/M06 A3005 RMK A01 T00691063  RH  038%=      5-min Rain = 0
KHO1 240917Z 29005KT 07/M06 A3005 RMK A01 T00681062  RH  039%=      5-min Rain = 0
KHO1 240918Z 29005KT 07/M06 A3005 RMK A01 T00681062  RH  039%=      5-min Rain = 0
KHO1 240919Z 29006KT 07/M06 A3005 RMK A01 T00671061  RH  040%=      5-min Rain = 0
KHO1 240920Z 29006KT 07/M06 A3005 RMK A01 T00661061  RH  040%=      5-min Rain = 0
KHO1 240921Z 29006KT 07/M06 A3005 RMK A01 T00661062  RH  040%=      5-min Rain = 0
KHO1 240922Z 29005KT 07/M06 A3005 RMK A01 T00661062  RH  040%=      5-min Rain = 0
KHO1 240923Z 29005KT 07/M06 A3005 RMK A01 T00661060  RH  040%=      5-min Rain = 0
KHO1 240924Z 27004KT 07/M06 A3005 RMK A01 T00651060  RH  041%=      5-min Rain = 0
KHO1 240925Z 27004KT 06/M06 A3005 RMK A01 T00641060  RH  041%=      5-min Rain = 0
KHO1 240926Z 26004KT 06/M06 A3005 RMK A01 T00641058  RH  041%=      5-min Rain = 0
KHO1 240927Z 27005KT 06/M06 A3005 RMK A01 T00631057  RH  042%=      5-min Rain = 0
KHO1 240928Z 26004KT 06/M06 A3005 RMK A01 T00631057  RH  042%=      5-min Rain = 0
KHO1 240929Z 25005KT 06/M06 A3005 RMK A01 T00611056  RH  043%=      5-min Rain = 0
KHO1 240930Z 26006KT 06/M06 A3005 RMK A01 T00591056  RH  043%=      5-min Rain = 0
KHO1 240931Z 25006KT 06/M06 A3005 RMK A01 T00581055  RH  044%=      5-min Rain = 0
KHO1 240932Z 25006KT 06/M05 A3005 RMK A01 T00571054  RH  045%=      5-min Rain = 0
KHO1 240933Z 26007KT 06/M05 A3005 RMK A01 T00551053  RH  045%=      5-min Rain = 0
KHO1 240934Z 25005KT 05/M05 A3005 RMK A01 T00541052  RH  046%=      5-min Rain = 0
KHO1 240935Z 21004KT 05/M05 A3005 RMK A01 T00531051  RH  047%=      5-min Rain = 0
KHO1 240936Z 18006KT 05/M05 A3006 RMK A01 T00491052  RH  048%=      5-min Rain = 0
KHO1 240937Z 22006KT 05/M05 A3005 RMK A01 T00491052  RH  048%=      5-min Rain = 0
KHO1 240938Z 23005KT 06/M05 A3005 RMK A01 T00551054  RH  045%=      5-min Rain = 0
KHO1 240939Z 23004KT 06/M05 A3005 RMK A01 T00581053  RH  045%=      5-min Rain = 0
KHO1 240940Z 23002KT 06/M05 A3006 RMK A01 T00571051  RH  046%=      5-min Rain = 0
KHO1 240941Z 24003KT 06/M05 A3006 RMK A01 T00561051  RH  046%=      5-min Rain = 0
KHO1 240942Z 23002KT 06/M05 A3006 RMK A01 T00551051  RH  046%=      5-min Rain = 0
KHO1 240943Z 24002KT 05/M05 A3006 RMK A01 T00541050  RH  047%=      5-min Rain = 0
KHO1 240944Z 25003KT 05/M05 A3006 RMK A01 T00541051  RH  047%=      5-min Rain = 0
KHO1 240945Z 25002KT 05/M05 A3005 RMK A01 T00541051  RH  047%=      5-min Rain = 0
KHO1 240946Z 25002KT 05/M05 A3005 RMK A01 T00541051  RH  047%=      5-min Rain = 0
KHO1 240947Z 25002KT 05/M05 A3005 RMK A01 T00541051  RH  047%=      5-min Rain = 0
KHO1 240948Z 25002KT 05/M05 A3005 RMK A01 T00541051  RH  047%=      5-min Rain = 0
KHO1 240949Z 25002KT 05/M05 A3005 RMK A01 T00531051  RH  047%=      5-min Rain = 0
KHO1 240950Z 26002KT 05/M05 A3005 RMK A01 T00541051  RH  047%=      5-min Rain = 0
KHO1 240951Z 26002KT 05/M05 A3006 RMK A01 T00541051  RH  047%=      5-min Rain = 0
KHO1 240952Z 24002KT 05/M05 A3006 RMK A01 T00541050  RH  047%=      5-min Rain = 0
KHO1 240953Z 24002KT 05/M05 A3006 RMK A01 T00541049  RH  047%=      5-min Rain = 0
KHO1 240954Z 27003KT 05/M05 A3006 RMK A01 T00531048  RH  048%=      5-min Rain = 0
KHO1 240955Z 26004KT 05/M05 A3006 RMK A01 T00531048  RH  048%=      5-min Rain = 0
KHO1 240956Z 27003KT 05/M05 A3005 RMK A01 T00521047  RH  049%=      5-min Rain = 0
KHO1 240957Z 26003KT 05/M05 A3005 RMK A01 T00511046  RH  049%=      5-min Rain = 0
KHO1 240958Z 26003KT 05/M05 A3006 RMK A01 T00501046  RH  050%=      5-min Rain = 0
KHO1 240959Z 23003KT 05/M05 A3005 RMK A01 T00491045  RH  050%=      5-min Rain = 0
KHO1 241000Z 17006KT 05/M04 A3006 RMK A01 T00481044  RH  051%=      5-min Rain = 0
KHO1 241001Z 19004KT 05/M04 A3006 RMK A01 T00471044  RH  051%=      5-min Rain = 0
KHO1 241002Z 21004KT 05/M04 A3006 RMK A01 T00481044  RH  051%=      5-min Rain = 0
KHO1 241003Z 17006KT 05/M04 A3006 RMK A01 T00481044  RH  051%=      5-min Rain = 0
KHO1 241004Z 22004KT 05/M04 A3006 RMK A01 T00481044  RH  051%=      5-min Rain = 0
KHO1 241005Z 24004KT 05/M05 A3006 RMK A01 T00491045  RH  051%=      5-min Rain = 0
KHO1 241006Z 25004KT 05/M05 A3006 RMK A01 T00491045  RH  050%=      5-min Rain = 0
KHO1 241007Z 22003KT 05/M04 A3006 RMK A01 T00491044  RH  051%=      5-min Rain = 0
KHO1 241008Z 16003KT 05/M04 A3006 RMK A01 T00471043  RH  052%=      5-min Rain = 0
KHO1 241009Z 18003KT 05/M04 A3006 RMK A01 T00451043  RH  053%=      5-min Rain = 0
KHO1 241010Z 21004KT 05/M04 A3005 RMK A01 T00451043  RH  053%=      5-min Rain = 0
KHO1 241011Z 22004KT 05/M04 A3005 RMK A01 T00461042  RH  053%=      5-min Rain = 0
KHO1 241012Z 23003KT 05/M04 A3005 RMK A01 T00471043  RH  052%=      5-min Rain = 0
KHO1 241013Z 23003KT 05/M04 A3005 RMK A01 T00471044  RH  052%=      5-min Rain = 0
KHO1 241014Z 24003KT 05/M05 A3005 RMK A01 T00481045  RH  051%=      5-min Rain = 0
KHO1 241015Z 24003KT 05/M05 A3006 RMK A01 T00481045  RH  051%=      5-min Rain = 0
KHO1 241016Z 24003KT 05/M05 A3006 RMK A01 T00481045  RH  051%=      5-min Rain = 0
KHO1 241017Z 24002KT 05/M05 A3006 RMK A01 T00491045  RH  051%=      5-min Rain = 0
KHO1 241018Z 23002KT 05/M04 A3006 RMK A01 T00491044  RH  051%=      5-min Rain = 0
KHO1 241019Z 23001KT 05/M04 A3006 RMK A01 T00481043  RH  052%=      5-min Rain = 0
KHO1 241020Z 23001KT 05/M04 A3006 RMK A01 T00471044  RH  051%=      5-min Rain = 0
KHO1 241021Z 23001KT 05/M05 A3005 RMK A01 T00481046  RH  051%=      5-min Rain = 0
KHO1 241022Z 23001KT 05/M05 A3005 RMK A01 T00481046  RH  051%=      5-min Rain = 0
KHO1 241023Z 24001KT 05/M05 A3005 RMK A01 T00481046  RH  051%=      5-min Rain = 0
KHO1 241024Z 25002KT 05/M05 A3005 RMK A01 T00481046  RH  050%=      5-min Rain = 0
KHO1 241025Z 28003KT 05/M05 A3005 RMK A01 T00491048  RH  050%=      5-min Rain = 0
KHO1 241026Z 28002KT 05/M05 A3005 RMK A01 T00501051  RH  048%=      5-min Rain = 0
KHO1 241027Z 29003KT 05/M05 A3005 RMK A01 T00521051  RH  047%=      5-min Rain = 0
KHO1 241028Z 28003KT 05/M05 A3005 RMK A01 T00531051  RH  047%=      5-min Rain = 0
KHO1 241029Z 27002KT 06/M05 A3005 RMK A01 T00551053  RH  046%=      5-min Rain = 0
KHO1 241030Z 24003KT 06/M05 A3005 RMK A01 T00561051  RH  046%=      5-min Rain = 0
KHO1 241031Z 24002KT 06/M05 A3005 RMK A01 T00581053  RH  045%=      5-min Rain = 0
KHO1 241032Z 23003KT 06/M05 A3005 RMK A01 T00601052  RH  045%=      5-min Rain = 0
KHO1 241033Z 24003KT 06/M05 A3005 RMK A01 T00611052  RH  044%=      5-min Rain = 0
KHO1 241034Z 24003KT 06/M05 A3005 RMK A01 T00621054  RH  043%=      5-min Rain = 0
KHO1 241035Z 24003KT 06/M05 A3005 RMK A01 T00631054  RH  043%=      5-min Rain = 0
KHO1 241036Z 24003KT 06/M05 A3005 RMK A01 T00641054  RH  043%=      5-min Rain = 0
KHO1 241037Z 23002KT 06/M06 A3005 RMK A01 T00631055  RH  042%=      5-min Rain = 0
KHO1 241038Z 23002KT 06/M06 A3005 RMK A01 T00641055  RH  042%=      5-min Rain = 0
KHO1 241039Z 22002KT 06/M06 A3005 RMK A01 T00631055  RH  043%=      5-min Rain = 0
KHO1 241040Z 22002KT 06/M06 A3005 RMK A01 T00631055  RH  043%=      5-min Rain = 0
KHO1 241041Z 22002KT 06/M05 A3005 RMK A01 T00621051  RH  044%=      5-min Rain = 0
KHO1 241042Z 22002KT 06/M05 A3005 RMK A01 T00601052  RH  044%=      5-min Rain = 0
KHO1 241043Z 22001KT 06/M05 A3005 RMK A01 T00601053  RH  044%=      5-min Rain = 0
KHO1 241044Z 22002KT 06/M05 A3005 RMK A01 T00611053  RH  044%=      5-min Rain = 0
KHO1 241045Z 22002KT 06/M05 A3005 RMK A01 T00611054  RH  044%=      5-min Rain = 0
KHO1 241046Z 22002KT 06/M06 A3005 RMK A01 T00611055  RH  043%=      5-min Rain = 0
KHO1 241047Z 22002KT 06/M06 A3005 RMK A01 T00611056  RH  043%=      5-min Rain = 0
KHO1 241048Z 23002KT 06/M06 A3005 RMK A01 T00611056  RH  043%=      5-min Rain = 0
KHO1 241049Z 23003KT 06/M06 A3005 RMK A01 T00611056  RH  043%=      5-min Rain = 0
KHO1 241050Z 22003KT 06/M06 A3005 RMK A01 T00621057  RH  042%=      5-min Rain = 0
KHO1 241051Z 22003KT 06/M06 A3005 RMK A01 T00631057  RH  042%=      5-min Rain = 0
KHO1 241052Z 22003KT 06/M06 A3005 RMK A01 T00631057  RH  042%=      5-min Rain = 0
KHO1 241053Z 21003KT 06/M06 A3005 RMK A01 T00631055  RH  042%=      5-min Rain = 0
KHO1 241054Z 20002KT 06/M06 A3005 RMK A01 T00631055  RH  043%=      5-min Rain = 0
KHO1 241055Z 19003KT 06/M05 A3005 RMK A01 T00611052  RH  044%=      5-min Rain = 0
KHO1 241056Z 19003KT 06/M05 A3005 RMK A01 T00601052  RH  044%=      5-min Rain = 0
KHO1 241057Z 19004KT 06/M05 A3005 RMK A01 T00611051  RH  044%=      5-min Rain = 0
KHO1 241058Z 21004KT 06/M05 A3005 RMK A01 T00621051  RH  044%=      5-min Rain = 0
KHO1 241059Z 22004KT 06/M05 A3005 RMK A01 T00631048  RH  045%=      5-min Rain = 0
KHO1 241100Z 22003KT 06/M05 A3005 RMK A01 T00631052  RH  044%=      5-min Rain = 0
KHO1 241101Z 20003KT 07/M05 A3005 RMK A01 T00651051  RH  043%=      5-min Rain = 0
KHO1 241102Z 21003KT 07/M05 A3005 RMK A01 T00651050  RH  044%=      5-min Rain = 0
KHO1 241103Z 22003KT 07/M05 A3005 RMK A01 T00651051  RH  043%=      5-min Rain = 0
KHO1 241104Z 22004KT 07/M05 A3005 RMK A01 T00661053  RH  042%=      5-min Rain = 0
KHO1 241105Z 23003KT 07/M05 A3005 RMK A01 T00671053  RH  042%=      5-min Rain = 0
KHO1 241106Z 23003KT 07/M05 A3005 RMK A01 T00681053  RH  042%=      5-min Rain = 0
KHO1 241107Z 23003KT 07/M05 A3005 RMK A01 T00681053  RH  042%=      5-min Rain = 0
KHO1 241108Z 24002KT 07/M05 A3005 RMK A01 T00671053  RH  042%=      5-min Rain = 0
KHO1 241109Z 24002KT 07/M05 A3005 RMK A01 T00671054  RH  042%=      5-min Rain = 0
KHO1 241110Z 24002KT 07/M06 A3005 RMK A01 T00671055  RH  042%=      5-min Rain = 0
KHO1 241111Z 24001KT 07/M05 A3005 RMK A01 T00671051  RH  043%=      5-min Rain = 0
KHO1 241112Z 24002KT 07/M05 A3005 RMK A01 T00661050  RH  043%=      5-min Rain = 0
KHO1 241113Z 24002KT 07/M05 A3005 RMK A01 T00651051  RH  043%=      5-min Rain = 0
KHO1 241114Z 24002KT 07/M05 A3005 RMK A01 T00651052  RH  043%=      5-min Rain = 0
KHO1 241115Z 24002KT 07/M05 A3005 RMK A01 T00651054  RH  042%=      5-min Rain = 0
KHO1 241116Z 24002KT 07/M05 A3005 RMK A01 T00651054  RH  042%=      5-min Rain = 0
KHO1 241117Z 25002KT 07/M05 A3005 RMK A01 T00651054  RH  042%=      5-min Rain = 0
KHO1 241118Z 25002KT 07/M06 A3005 RMK A01 T00661055  RH  042%=      5-min Rain = 0
KHO1 241119Z 26002KT 07/M06 A3005 RMK A01 T00671055  RH  041%=      5-min Rain = 0
KHO1 241120Z 26002KT 07/M06 A3005 RMK A01 T00681055  RH  041%=      5-min Rain = 0
KHO1 241121Z 26002KT 07/M05 A3005 RMK A01 T00681054  RH  041%=      5-min Rain = 0
KHO1 241122Z 26002KT 07/M05 A3005 RMK A01 T00691054  RH  041%=      5-min Rain = 0
KHO1 241123Z 26002KT 07/M05 A3005 RMK A01 T00691054  RH  041%=      5-min Rain = 0
KHO1 241124Z 26002KT 07/M05 A3005 RMK A01 T00701054  RH  041%=      5-min Rain = 0
KHO1 241125Z 26002KT 07/M05 A3005 RMK A01 T00701054  RH  041%=      5-min Rain = 0
KHO1 241126Z 25001KT 07/M05 A3005 RMK A01 T00701054  RH  041%=      5-min Rain = 0
KHO1 241127Z 15005KT 07/M05 A3005 RMK A01 T00671045  RH  045%=      5-min Rain = 0
KHO1 241128Z 16005KT 06/M04 A3005 RMK A01 T00601042  RH  048%=      5-min Rain = 0
KHO1 241129Z 20002KT 06/M05 A3005 RMK A01 T00601046  RH  046%=      5-min Rain = 0
KHO1 241130Z 24003KT 06/M05 A3005 RMK A01 T00631046  RH  046%=      5-min Rain = 0
KHO1 241131Z 22003KT 06/M05 A3005 RMK A01 T00641048  RH  044%=      5-min Rain = 0
KHO1 241132Z 19004KT 07/M05 A3006 RMK A01 T00671046  RH  044%=      5-min Rain = 0
KHO1 241133Z 16007KT 07/M04 A3006 RMK A01 T00671042  RH  046%=      5-min Rain = 0
KHO1 241134Z 17005KT 07/M04 A3006 RMK A01 T00661043  RH  046%=      5-min Rain = 0
KHO1 241135Z 20004KT 07/M04 A3006 RMK A01 T00661044  RH  045%=      5-min Rain = 0
KHO1 241136Z 17006KT 07/M04 A3006 RMK A01 T00671042  RH  046%=      5-min Rain = 0
KHO1 241137Z 17008KT 07/M04 A3006 RMK A01 T00671043  RH  045%=      5-min Rain = 0
KHO1 241138Z 17006KT 07/M04 A3006 RMK A01 T00661043  RH  046%=      5-min Rain = 0
KHO1 241139Z 18006KT 07/M04 A3006 RMK A01 T00651042  RH  046%=      5-min Rain = 0
KHO1 241140Z 17006KT 07/M04 A3006 RMK A01 T00651042  RH  046%=      5-min Rain = 0
KHO1 241141Z 17007KT 06/M04 A3006 RMK A01 T00641041  RH  047%=      5-min Rain = 0
KHO1 241142Z 17006KT 06/M04 A3006 RMK A01 T00621041  RH  048%=      5-min Rain = 0
KHO1 241143Z 18007KT 06/M04 A3006 RMK A01 T00621042  RH  047%=      5-min Rain = 0
KHO1 241144Z 19007KT 06/M04 A3006 RMK A01 T00631044  RH  046%=      5-min Rain = 0
KHO1 241145Z 19006KT 06/M05 A3006 RMK A01 T00641046  RH  046%=      5-min Rain = 0
KHO1 241146Z 19004KT 06/M05 A3006 RMK A01 T00641046  RH  045%=      5-min Rain = 0
KHO1 241147Z 19004KT 06/M05 A3006 RMK A01 T00641045  RH  045%=      5-min Rain = 0
KHO1 241148Z 18005KT 06/M05 A3006 RMK A01 T00641045  RH  046%=      5-min Rain = 0
KHO1 241149Z 18006KT 06/M05 A3006 RMK A01 T00631046  RH  046%=      5-min Rain = 0
KHO1 241150Z 18005KT 06/M05 A3006 RMK A01 T00631046  RH  046%=      5-min Rain = 0
KHO1 241151Z 19004KT 06/M05 A3006 RMK A01 T00631046  RH  046%=      5-min Rain = 0
KHO1 241152Z 20004KT 06/M05 A3006 RMK A01 T00631047  RH  045%=      5-min Rain = 0
KHO1 241153Z 19005KT 06/M05 A3006 RMK A01 T00631047  RH  045%=      5-min Rain = 0
KHO1 241154Z 18006KT 06/M05 A3006 RMK A01 T00631047  RH  045%=      5-min Rain = 0
KHO1 241155Z 19005KT 06/M05 A3006 RMK A01 T00621047  RH  046%=      5-min Rain = 0
KHO1 241156Z 19005KT 06/M05 A3006 RMK A01 T00621048  RH  045%=      5-min Rain = 0
KHO1 241157Z 19004KT 06/M05 A3006 RMK A01 T00621048  RH  045%=      5-min Rain = 0
KHO1 241158Z 19005KT 06/M05 A3006 RMK A01 T00621048  RH  045%=      5-min Rain = 0
KHO1 241159Z 19004KT 06/M05 A3006 RMK A01 T00621049  RH  045%=      5-min Rain = 0
KHO1 241200Z 19003KT 06/M05 A3006 RMK A01 T00631050  RH  044%=      5-min Rain = 0
KHO1 241201Z 19004KT 06/M05 A3006 RMK A01 T00631049  RH  044%=      5-min Rain = 0
KHO1 241202Z 19004KT 06/M05 A3006 RMK A01 T00631050  RH  044%=      5-min Rain = 0
KHO1 241203Z 19004KT 06/M05 A3006 RMK A01 T00631050  RH  044%=      5-min Rain = 0
KHO1 241204Z 19004KT 06/M05 A3006 RMK A01 T00631050  RH  044%=      5-min Rain = 0
KHO1 241205Z 19003KT 06/M05 A3006 RMK A01 T00631050  RH  044%=      5-min Rain = 0
KHO1 241206Z 20003KT 06/M05 A3006 RMK A01 T00631050  RH  044%=      5-min Rain = 0
KHO1 241207Z 20003KT 06/M05 A3006 RMK A01 T00631050  RH  044%=      5-min Rain = 0
KHO1 241208Z 20003KT 06/M05 A3006 RMK A01 T00631050  RH  044%=      5-min Rain = 0
KHO1 241209Z 20004KT 06/M05 A3006 RMK A01 T00631050  RH  044%=      5-min Rain = 0
KHO1 241210Z 20004KT 06/M05 A3006 RMK A01 T00641050  RH  044%=      5-min Rain = 0
KHO1 241211Z 21004KT 06/M05 A3006 RMK A01 T00641050  RH  044%=      5-min Rain = 0
KHO1 241212Z 21004KT 06/M05 A3006 RMK A01 T00641051  RH  044%=      5-min Rain = 0
KHO1 241213Z 21004KT 07/M05 A3006 RMK A01 T00651051  RH  043%=      5-min Rain = 0
KHO1 241214Z 21004KT 07/M05 A3006 RMK A01 T00651051  RH  043%=      5-min Rain = 0
KHO1 241215Z 21004KT 07/M05 A3006 RMK A01 T00651052  RH  043%=      5-min Rain = 0
KHO1 241216Z 20004KT 07/M05 A3006 RMK A01 T00661052  RH  043%=      5-min Rain = 0
KHO1 241217Z 20005KT 07/M05 A3006 RMK A01 T00661052  RH  043%=      5-min Rain = 0
KHO1 241218Z 20005KT 07/M05 A3006 RMK A01 T00661052  RH  042%=      5-min Rain = 0
KHO1 241219Z 20004KT 07/M05 A3006 RMK A01 T00661051  RH  043%=      5-min Rain = 0
KHO1 241220Z 20004KT 07/M05 A3007 RMK A01 T00651051  RH  043%=      5-min Rain = 0
KHO1 241221Z 21004KT 06/M05 A3007 RMK A01 T00641051  RH  044%=      5-min Rain = 0
KHO1 241222Z 21004KT 06/M05 A3007 RMK A01 T00631051  RH  044%=      5-min Rain = 0
KHO1 241223Z 21004KT 06/M05 A3007 RMK A01 T00631050  RH  044%=      5-min Rain = 0
KHO1 241224Z 21004KT 06/M05 A3007 RMK A01 T00631051  RH  044%=      5-min Rain = 0
KHO1 241225Z 22004KT 06/M05 A3007 RMK A01 T00631050  RH  044%=      5-min Rain = 0
KHO1 241226Z 21004KT 06/M05 A3007 RMK A01 T00631050  RH  044%=      5-min Rain = 0
KHO1 241227Z 21004KT 06/M05 A3007 RMK A01 T00641050  RH  044%=      5-min Rain = 0
KHO1 241228Z 21004KT 06/M05 A3007 RMK A01 T00641049  RH  044%=      5-min Rain = 0
KHO1 241229Z 22005KT 06/M05 A3007 RMK A01 T00641049  RH  044%=      5-min Rain = 0
KHO1 241230Z 21005KT 06/M05 A3007 RMK A01 T00641049  RH  044%=      5-min Rain = 0
KHO1 241231Z 22004KT 06/M05 A3007 RMK A01 T00641048  RH  045%=      5-min Rain = 0
KHO1 241232Z 22004KT 06/M05 A3007 RMK A01 T00631046  RH  046%=      5-min Rain = 0
KHO1 241233Z 22003KT 06/M05 A3007 RMK A01 T00621045  RH  046%=      5-min Rain = 0
KHO1 241234Z 22003KT 06/M04 A3007 RMK A01 T00601044  RH  047%=      5-min Rain = 0
KHO1 241235Z 22003KT 06/M04 A3007 RMK A01 T00581043  RH  048%=      5-min Rain = 0
KHO1 241236Z 22003KT 06/M04 A3007 RMK A01 T00571042  RH  049%=      5-min Rain = 0
KHO1 241237Z 23004KT 06/M04 A3007 RMK A01 T00561043  RH  049%=      5-min Rain = 0
KHO1 241238Z 23004KT 06/M04 A3007 RMK A01 T00571043  RH  049%=      5-min Rain = 0
KHO1 241239Z 23004KT 06/M04 A3007 RMK A01 T00581044  RH  048%=      5-min Rain = 0
KHO1 241240Z 23004KT 06/M05 A3007 RMK A01 T00591045  RH  047%=      5-min Rain = 0
KHO1 241241Z 23005KT 06/M05 A3007 RMK A01 T00591045  RH  047%=      5-min Rain = 0
KHO1 241242Z 24005KT 06/M05 A3007 RMK A01 T00591045  RH  047%=      5-min Rain = 0
KHO1 241243Z 24005KT 06/M05 A3007 RMK A01 T00591045  RH  047%=      5-min Rain = 0
KHO1 241244Z 25005KT 06/M05 A3007 RMK A01 T00591045  RH  047%=      5-min Rain = 0
KHO1 241245Z 25005KT 06/M04 A3007 RMK A01 T00591042  RH  048%=      5-min Rain = 0
KHO1 241246Z 25005KT 06/M04 A3007 RMK A01 T00581043  RH  048%=      5-min Rain = 0
KHO1 241247Z 25005KT 06/M04 A3007 RMK A01 T00571043  RH  048%=      5-min Rain = 0
KHO1 241248Z 25005KT 06/M04 A3008 RMK A01 T00571043  RH  048%=      5-min Rain = 0
KHO1 241249Z 25005KT 06/M04 A3008 RMK A01 T00571043  RH  049%=      5-min Rain = 0
KHO1 241250Z 25005KT 06/M04 A3008 RMK A01 T00561043  RH  049%=      5-min Rain = 0
KHO1 241251Z 26005KT 06/M04 A3008 RMK A01 T00561044  RH  049%=      5-min Rain = 0
KHO1 241252Z 26005KT 06/M05 A3008 RMK A01 T00561045  RH  048%=      5-min Rain = 0
KHO1 241253Z 26005KT 06/M05 A3008 RMK A01 T00571046  RH  048%=      5-min Rain = 0
KHO1 241254Z 26004KT 06/M05 A3008 RMK A01 T00571046  RH  047%=      5-min Rain = 0
KHO1 241255Z 26004KT 06/M05 A3008 RMK A01 T00571046  RH  047%=      5-min Rain = 0
KHO1 241256Z 26005KT 06/M05 A3008 RMK A01 T00581046  RH  047%=      5-min Rain = 0
KHO1 241257Z 26004KT 06/M05 A3008 RMK A01 T00581047  RH  047%=      5-min Rain = 0
KHO1 241258Z 26004KT 06/M05 A3008 RMK A01 T00581047  RH  047%=      5-min Rain = 0
KHO1 241259Z 26005KT 06/M05 A3008 RMK A01 T00581047  RH  047%=      5-min Rain = 0
KHO1 241300Z 26005KT 06/M05 A3008 RMK A01 T00581048  RH  046%=      5-min Rain = 0
KHO1 241301Z 26005KT 06/M05 A3008 RMK A01 T00581048  RH  047%=      5-min Rain = 0
KHO1 241302Z 25005KT 06/M05 A3008 RMK A01 T00581048  RH  046%=      5-min Rain = 0
KHO1 241303Z 25005KT 06/M05 A3008 RMK A01 T00581049  RH  046%=      5-min Rain = 0
KHO1 241304Z 25005KT 06/M05 A3008 RMK A01 T00571048  RH  047%=      5-min Rain = 0
KHO1 241305Z 25005KT 06/M05 A3008 RMK A01 T00571048  RH  047%=      5-min Rain = 0
KHO1 241306Z 25004KT 06/M05 A3008 RMK A01 T00561048  RH  047%=      5-min Rain = 0
KHO1 241307Z 26004KT 06/M05 A3008 RMK A01 T00551047  RH  048%=      5-min Rain = 0
KHO1 241308Z 26004KT 06/M05 A3008 RMK A01 T00551047  RH  048%=      5-min Rain = 0
KHO1 241309Z 26003KT 06/M05 A3008 RMK A01 T00551046  RH  048%=      5-min Rain = 0
KHO1 241310Z 26003KT 06/M05 A3008 RMK A01 T00551045  RH  048%=      5-min Rain = 0
KHO1 241311Z 27003KT 06/M04 A3008 RMK A01 T00551043  RH  049%=      5-min Rain = 0
KHO1 241312Z 27003KT 05/M04 A3008 RMK A01 T00541043  RH  049%=      5-min Rain = 0
KHO1 241313Z 27003KT 05/M04 A3008 RMK A01 T00541044  RH  049%=      5-min Rain = 0
KHO1 241314Z 26003KT 05/M04 A3008 RMK A01 T00541044  RH  049%=      5-min Rain = 0
KHO1 241315Z 26003KT 05/M05 A3008 RMK A01 T00541046  RH  048%=      5-min Rain = 0
KHO1 241316Z 26003KT 06/M05 A3008 RMK A01 T00551046  RH  048%=      5-min Rain = 0
KHO1 241317Z 27003KT 06/M05 A3008 RMK A01 T00561046  RH  048%=      5-min Rain = 0
KHO1 241318Z 27003KT 06/M05 A3008 RMK A01 T00561046  RH  048%=      5-min Rain = 0
KHO1 241319Z 27003KT 06/M05 A3008 RMK A01 T00561046  RH  048%=      5-min Rain = 0
KHO1 241320Z 27003KT 06/M05 A3008 RMK A01 T00561046  RH  048%=      5-min Rain = 0
KHO1 241321Z 27003KT 06/M05 A3008 RMK A01 T00571046  RH  048%=      5-min Rain = 0
KHO1 241322Z 28003KT 06/M05 A3008 RMK A01 T00571047  RH  047%=      5-min Rain = 0
KHO1 241323Z 29004KT 06/M05 A3008 RMK A01 T00571048  RH  047%=      5-min Rain = 0
KHO1 241324Z 28004KT 06/M05 A3008 RMK A01 T00581049  RH  046%=      5-min Rain = 0
KHO1 241325Z 29004KT 06/M05 A3008 RMK A01 T00601048  RH  046%=      5-min Rain = 0
KHO1 241326Z 29004KT 06/M05 A3008 RMK A01 T00611048  RH  045%=      5-min Rain = 0
KHO1 241327Z 29004KT 06/M05 A3008 RMK A01 T00631047  RH  045%=      5-min Rain = 0
KHO1 241328Z 29004KT 07/M05 A3008 RMK A01 T00651047  RH  044%=      5-min Rain = 0
KHO1 241329Z 29004KT 07/M05 A3008 RMK A01 T00681047  RH  044%=      5-min Rain = 0
KHO1 241330Z 30004KT 07/M05 A3008 RMK A01 T00701047  RH  043%=      5-min Rain = 0
KHO1 241331Z 30003KT 07/M04 A3008 RMK A01 T00721044  RH  043%=      5-min Rain = 0
KHO1 241332Z 30003KT 07/M04 A3008 RMK A01 T00731041  RH  044%=      5-min Rain = 0
KHO1 241333Z 30004KT 07/M04 A3008 RMK A01 T00741043  RH  043%=      5-min Rain = 0
KHO1 241334Z 30005KT 08/M04 A3008 RMK A01 T00751044  RH  043%=      5-min Rain = 0
KHO1 241335Z 29005KT 08/M04 A3008 RMK A01 T00751044  RH  043%=      5-min Rain = 0
KHO1 241336Z 29005KT 08/M04 A3008 RMK A01 T00761044  RH  042%=      5-min Rain = 0
KHO1 241337Z 29004KT 08/M04 A3008 RMK A01 T00771044  RH  042%=      5-min Rain = 0
KHO1 241338Z 29005KT 08/M04 A3008 RMK A01 T00781042  RH  042%=      5-min Rain = 0
KHO1 241339Z 28005KT 08/M04 A3008 RMK A01 T00801041  RH  042%=      5-min Rain = 0
KHO1 241340Z 28005KT 08/M04 A3008 RMK A01 T00811039  RH  043%=      5-min Rain = 0
KHO1 241341Z 27005KT 08/M04 A3008 RMK A01 T00821040  RH  042%=      5-min Rain = 0
KHO1 241342Z 27005KT 08/M04 A3008 RMK A01 T00841043  RH  041%=      5-min Rain = 0
KHO1 241343Z 27005KT 09/M04 A3008 RMK A01 T00861043  RH  040%=      5-min Rain = 0
KHO1 241344Z 28005KT 09/M04 A3008 RMK A01 T00871042  RH  040%=      5-min Rain = 0
KHO1 241345Z 28005KT 09/M04 A3009 RMK A01 T00881044  RH  039%=      5-min Rain = 0
KHO1 241346Z 28005KT 09/M04 A3009 RMK A01 T00901044  RH  038%=      5-min Rain = 0
KHO1 241347Z 28006KT 09/M04 A3009 RMK A01 T00911044  RH  038%=      5-min Rain = 0
KHO1 241348Z 28006KT 09/M04 A3009 RMK A01 T00931044  RH  038%=      5-min Rain = 0
KHO1 241349Z 28006KT 10/M05 A3009 RMK A01 T00961045  RH  037%=      5-min Rain = 0
KHO1 241350Z 29005KT 10/M04 A3009 RMK A01 T00981044  RH  036%=      5-min Rain = 0
KHO1 241351Z 29004KT 10/M04 A3009 RMK A01 T00991044  RH  036%=      5-min Rain = 0
KHO1 241352Z 29004KT 10/M04 A3009 RMK A01 T01011038  RH  037%=      5-min Rain = 0
KHO1 241353Z 30005KT 10/M04 A3009 RMK A01 T01011041  RH  037%=      5-min Rain = 0
KHO1 241354Z 29004KT 10/M04 A3009 RMK A01 T01021038  RH  037%=      5-min Rain = 0
KHO1 241355Z 30004KT 10/M03 A3009 RMK A01 T01031034  RH  038%=      5-min Rain = 0
KHO1 241356Z 30004KT 10/M03 A3009 RMK A01 T01031034  RH  038%=      5-min Rain = 0
KHO1 241357Z 30004KT 10/M03 A3009 RMK A01 T01031034  RH  038%=      5-min Rain = 0
KHO1 241358Z 29005KT 10/M03 A3009 RMK A01 T01031034  RH  038%=      5-min Rain = 0
KHO1 241359Z 29004KT 10/M04 A3009 RMK A01 T01031035  RH  038%=      5-min Rain = 0
KHO1 241400Z 29004KT 10/M04 A3009 RMK A01 T01031038  RH  037%=      5-min Rain = 0
KHO1 241401Z 29004KT 10/M04 A3009 RMK A01 T01041037  RH  037%=      5-min Rain = 0
KHO1 241402Z 29004KT 10/M04 A3009 RMK A01 T01041039  RH  036%=      5-min Rain = 0
KHO1 241403Z 29004KT 10/M04 A3009 RMK A01 T01041039  RH  036%=      5-min Rain = 0
KHO1 241404Z 29004KT 11/M04 A3009 RMK A01 T01051038  RH  036%=      5-min Rain = 0
KHO1 241405Z 29003KT 11/M04 A3009 RMK A01 T01051039  RH  036%=      5-min Rain = 0
KHO1 241406Z 29004KT 11/M04 A3009 RMK A01 T01051039  RH  036%=      5-min Rain = 0
KHO1 241407Z 29003KT 11/M04 A301 RMK A01 T01061036  RH  037%=      5-min Rain = 0
KHO1 241408Z 29003KT 11/M03 A301 RMK A01 T01071034  RH  037%=      5-min Rain = 0
KHO1 241409Z 29003KT 11/M03 A301 RMK A01 T01081032  RH  037%=      5-min Rain = 0
KHO1 241410Z 28004KT 11/M03 A301 RMK A01 T01091033  RH  037%=      5-min Rain = 0
KHO1 241411Z 28003KT 11/M04 A301 RMK A01 T01111037  RH  035%=      5-min Rain = 0
KHO1 241412Z 28002KT 11/M04 A301 RMK A01 T01131038  RH  034%=      5-min Rain = 0
KHO1 241413Z 29003KT 12/M04 A301 RMK A01 T01151041  RH  033%=      5-min Rain = 0
KHO1 241414Z 28004KT 12/M04 A301 RMK A01 T01161042  RH  033%=      5-min Rain = 0
KHO1 241415Z 28004KT 12/M04 A301 RMK A01 T01171041  RH  033%=      5-min Rain = 0
KHO1 241416Z 28004KT 12/M05 A301 RMK A01 T01181045  RH  032%=      5-min Rain = 0
KHO1 241417Z 27005KT 12/M05 A301 RMK A01 T01191046  RH  031%=      5-min Rain = 0
KHO1 241418Z 27005KT 12/M05 A301 RMK A01 T01191046  RH  031%=      5-min Rain = 0
KHO1 241419Z 27006KT 12/M05 A301 RMK A01 T01201045  RH  031%=      5-min Rain = 0
KHO1 241420Z 27006KT 12/M05 A301 RMK A01 T01211047  RH  031%=      5-min Rain = 0
KHO1 241421Z 27006KT 12/M05 A301 RMK A01 T01231045  RH  031%=      5-min Rain = 0
KHO1 241422Z 28006KT 13/M05 A301 RMK A01 T01251047  RH  030%=      5-min Rain = 0
KHO1 241423Z 28006KT 13/M04 A301 RMK A01 T01261043  RH  030%=      5-min Rain = 0
KHO1 241424Z 28006KT 13/M05 A301 RMK A01 T01271047  RH  029%=      5-min Rain = 0
KHO1 241425Z 27006KT 13/M05 A301 RMK A01 T01281046  RH  029%=      5-min Rain = 0
KHO1 241426Z 27006KT 13/M05 A301 RMK A01 T01291045  RH  029%=      5-min Rain = 0
KHO1 241427Z 27006KT 13/M05 A301 RMK A01 T01301048  RH  029%=      5-min Rain = 0
KHO1 241428Z 27005KT 13/M05 A301 RMK A01 T01311046  RH  029%=      5-min Rain = 0
KHO1 241429Z 27007KT 13/M05 A301 RMK A01 T01331047  RH  028%=      5-min Rain = 0
KHO1 241430Z 27006KT 13/M05 A301 RMK A01 T01341046  RH  028%=      5-min Rain = 0
KHO1 241431Z 28006KT 14/M05 A301 RMK A01 T01361047  RH  028%=      5-min Rain = 0
KHO1 241432Z 28007KT 14/M05 A301 RMK A01 T01371050  RH  027%=      5-min Rain = 0
KHO1 241433Z 28006KT 14/M05 A301 RMK A01 T01381054  RH  026%=      5-min Rain = 0
KHO1 241434Z 28007KT 14/M05 A301 RMK A01 T01391049  RH  027%=      5-min Rain = 0
KHO1 241435Z 28007KT 14/M05 A301 RMK A01 T01411053  RH  026%=      5-min Rain = 0
KHO1 241436Z 28006KT 14/M05 A301 RMK A01 T01421051  RH  026%=      5-min Rain = 0
KHO1 241437Z 28006KT 14/M05 A301 RMK A01 T01431051  RH  026%=      5-min Rain = 0
KHO1 241438Z 28005KT 14/M05 A3011 RMK A01 T01441050  RH  026%=      5-min Rain = 0
KHO1 241439Z 27006KT 15/M05 A3011 RMK A01 T01461050  RH  026%=      5-min Rain = 0
KHO1 241440Z 27007KT 15/M05 A3011 RMK A01 T01471053  RH  025%=      5-min Rain = 0
KHO1 241441Z 27009KT 15/M06 A3011 RMK A01 T01481056  RH  024%=      5-min Rain = 0
KHO1 241442Z 27009KT 15/M06 A3011 RMK A01 T01491057  RH  024%=      5-min Rain = 0
KHO1 241443Z 28008KT 15/M06 A3011 RMK A01 T01501057  RH  023%=      5-min Rain = 0
KHO1 241444Z 27007KT 15/M06 A3011 RMK A01 T01511057  RH  023%=      5-min Rain = 0
KHO1 241445Z 28008KT 15/M06 A3011 RMK A01 T01521058  RH  023%=      5-min Rain = 0
KHO1 241446Z 27007KT 15/M06 A3011 RMK A01 T01531055  RH  024%=      5-min Rain = 0
KHO1 241447Z 28007KT 15/M05 A3011 RMK A01 T01541053  RH  024%=      5-min Rain = 0
KHO1 241448Z 28007KT 16/M06 A3011 RMK A01 T01551058  RH  023%=      5-min Rain = 0
KHO1 241449Z 28007KT 16/M06 A3011 RMK A01 T01561058  RH  022%=      5-min Rain = 0
KHO1 241450Z 28007KT 16/M06 A3011 RMK A01 T01571056  RH  023%=      5-min Rain = 0
KHO1 241451Z 28005KT 16/M06 A3011 RMK A01 T01581055  RH  023%=      5-min Rain = 0
KHO1 241452Z 28006KT 16/M06 A3011 RMK A01 T01591057  RH  022%=      5-min Rain = 0
KHO1 241453Z 28006KT 16/M06 A3011 RMK A01 T01601057  RH  022%=      5-min Rain = 0
KHO1 241454Z 28005KT 16/M06 A3011 RMK A01 T01611057  RH  022%=      5-min Rain = 0
KHO1 241455Z 29004KT 16/M05 A3011 RMK A01 T01631050  RH  023%=      5-min Rain = 0
KHO1 241456Z 30004KT 17/M05 A3011 RMK A01 T01651050  RH  022%=      5-min Rain = 0
KHO1 241457Z 30005KT 17/M06 A3011 RMK A01 T01671055  RH  021%=      5-min Rain = 0
KHO1 241458Z 31003KT 17/M06 A3012 RMK A01 T01681056  RH  021%=      5-min Rain = 0
KHO1 241459Z 33004KT 17/M06 A3012 RMK A01 T01701059  RH  020%=      5-min Rain = 0
KHO1 241500Z 35004KT 17/M07 A3012 RMK A01 T01701065  RH  019%=      5-min Rain = 0
KHO1 241501Z 01004KT 17/M06 A3012 RMK A01 T01701058  RH  020%=      5-min Rain = 0
KHO1 241502Z 03006KT 17/M05 A3012 RMK A01 T01711049  RH  022%=      5-min Rain = 0
KHO1 241503Z 03008KT 17/M04 A3012 RMK A01 T01681041  RH  024%=      5-min Rain = 0
KHO1 241504Z 04007KT 16/M04 A3012 RMK A01 T01631041  RH  024%=      5-min Rain = 0
KHO1 241505Z 03008KT 16/M05 A3012 RMK A01 T01611046  RH  024%=      5-min Rain = 0
KHO1 241506Z 02008KT 16/M05 A3012 RMK A01 T01621047  RH  023%=      5-min Rain = 0
KHO1 241507Z 01006KT 16/M05 A3012 RMK A01 T01621054  RH  022%=      5-min Rain = 0
KHO1 241508Z 01006KT 16/M05 A3012 RMK A01 T01631052  RH  022%=      5-min Rain = 0
KHO1 241509Z 33006KT 17/M06 A3012 RMK A01 T01651058  RH  021%=      5-min Rain = 0
KHO1 241510Z 31004KT 17/M06 A3012 RMK A01 T01661058  RH  021%=      5-min Rain = 0
KHO1 241511Z 30004KT 17/M06 A3012 RMK A01 T01681056  RH  021%=      5-min Rain = 0
KHO1 241512Z 32004KT 17/M06 A3012 RMK A01 T01701057  RH  021%=      5-min Rain = 0
KHO1 241513Z 34005KT 17/M05 A3012 RMK A01 T01711054  RH  021%=      5-min Rain = 0
KHO1 241514Z 34004KT 17/M06 A3012 RMK A01 T01711057  RH  021%=      5-min Rain = 0
KHO1 241515Z 32003KT 17/M05 A3012 RMK A01 T01701054  RH  021%=      5-min Rain = 0
KHO1 241516Z 33003KT 17/M05 A3012 RMK A01 T01711053  RH  021%=      5-min Rain = 0
KHO1 241517Z 36004KT 17/M05 A3012 RMK A01 T01711051  RH  021%=      5-min Rain = 0
KHO1 241518Z 01005KT 17/M05 A3013 RMK A01 T01701047  RH  022%=      5-min Rain = 0
KHO1 241519Z 03005KT 17/M05 A3013 RMK A01 T01701046  RH  022%=      5-min Rain = 0
KHO1 241520Z 05007KT 17/M03 A3013 RMK A01 T01701033  RH  025%=      5-min Rain = 0
KHO1 241521Z 04006KT 17/M03 A3013 RMK A01 T01691033  RH  025%=      5-min Rain = 0
KHO1 241522Z 05005KT 17/M03 A3013 RMK A01 T01681030  RH  026%=      5-min Rain = 0
KHO1 241523Z 04004KT 17/M03 A3013 RMK A01 T01691034  RH  025%=      5-min Rain = 0
KHO1 241524Z 05002KT 17/M04 A3013 RMK A01 T01701039  RH  024%=      5-min Rain = 0
KHO1 241525Z 12001KT 17/M04 A3013 RMK A01 T01701044  RH  023%=      5-min Rain = 0
KHO1 241526Z 00000KT 17/M05 A3012 RMK A01 T01711046  RH  022%=      5-min Rain = 0
KHO1 241527Z 00001KT 17/M04 A3012 RMK A01 T01721042  RH  023%=      5-min Rain = 0
KHO1 241528Z 00001KT 17/M04 A3013 RMK A01 T01731044  RH  022%=      5-min Rain = 0
KHO1 241529Z 01002KT 17/M04 A3013 RMK A01 T01741043  RH  022%=      5-min Rain = 0
KHO1 241530Z 01003KT 17/M04 A3013 RMK A01 T01741044  RH  022%=      5-min Rain = 0
KHO1 241531Z 03004KT 17/M04 A3013 RMK A01 T01741040  RH  023%=      5-min Rain = 0
KHO1 241532Z 03002KT 18/M04 A3013 RMK A01 T01751041  RH  023%=      5-min Rain = 0
KHO1 241533Z 03003KT 18/M05 A3012 RMK A01 T01761048  RH  021%=      5-min Rain = 0
KHO1 241534Z 03003KT 18/M05 A3012 RMK A01 T01751049  RH  021%=      5-min Rain = 0
KHO1 241535Z 03002KT 18/M04 A3012 RMK A01 T01751044  RH  022%=      5-min Rain = 0
KHO1 241536Z 05004KT 18/M03 A3013 RMK A01 T01751032  RH  024%=      5-min Rain = 0
KHO1 241537Z 07003KT 18/M03 A3013 RMK A01 T01751030  RH  025%=      5-min Rain = 0
KHO1 241538Z 08001KT 18/M03 A3013 RMK A01 T01751030  RH  024%=      5-min Rain = 0
KHO1 241539Z 06002KT 18/M03 A3013 RMK A01 T01781033  RH  024%=      5-min Rain = 0
KHO1 241540Z 05003KT 18/M04 A3013 RMK A01 T01811038  RH  022%=      5-min Rain = 0
KHO1 241541Z 02004KT 18/M04 A3013 RMK A01 T01821044  RH  021%=      5-min Rain = 0
KHO1 241542Z 00003KT 18/M04 A3013 RMK A01 T01811039  RH  022%=      5-min Rain = 0
KHO1 241543Z 36002KT 18/M04 A3013 RMK A01 T01801044  RH  021%=      5-min Rain = 0
KHO1 241544Z 35002KT 18/M04 A3013 RMK A01 T01791044  RH  022%=      5-min Rain = 0
KHO1 241545Z 00003KT 18/M05 A3013 RMK A01 T01791046  RH  021%=      5-min Rain = 0
KHO1 241546Z 02003KT 18/M04 A3013 RMK A01 T01781043  RH  022%=      5-min Rain = 0
KHO1 241547Z 03005KT 18/M04 A3013 RMK A01 T01781042  RH  022%=      5-min Rain = 0
KHO1 241548Z 02004KT 18/M05 A3013 RMK A01 T01781047  RH  021%=      5-min Rain = 0
KHO1 241549Z 02005KT 18/M05 A3013 RMK A01 T01771046  RH  021%=      5-min Rain = 0
KHO1 241550Z 03005KT 18/M04 A3013 RMK A01 T01771042  RH  022%=      5-min Rain = 0
KHO1 241551Z 04005KT 18/M04 A3013 RMK A01 T01791036  RH  023%=      5-min Rain = 0
KHO1 241552Z 04004KT 18/M04 A3013 RMK A01 T01811036  RH  023%=      5-min Rain = 0
KHO1 241553Z 02005KT 18/M04 A3013 RMK A01 T01831044  RH  021%=      5-min Rain = 0
KHO1 241554Z 03006KT 18/M05 A3013 RMK A01 T01821046  RH  021%=      5-min Rain = 0
KHO1 241555Z 01005KT 18/M05 A3013 RMK A01 T01811049  RH  020%=      5-min Rain = 0
KHO1 241556Z 02005KT 18/M05 A3013 RMK A01 T01801050  RH  020%=      5-min Rain = 0
KHO1 241557Z 00007KT 18/M05 A3013 RMK A01 T01811050  RH  020%=      5-min Rain = 0
KHO1 241558Z 35006KT 18/M05 A3013 RMK A01 T01801052  RH  020%=      5-min Rain = 0
KHO1 241559Z 36005KT 18/M05 A3013 RMK A01 T01801050  RH  020%=      5-min Rain = 0
KHO1 241600Z 02006KT 18/M05 A3013 RMK A01 T01811048  RH  021%=      5-min Rain = 0
KHO1 241601Z 02005KT 18/M05 A3013 RMK A01 T01821050  RH  020%=      5-min Rain = 0
KHO1 241602Z 02005KT 18/M04 A3013 RMK A01 T01821043  RH  021%=      5-min Rain = 0
KHO1 241603Z 02005KT 18/M05 A3013 RMK A01 T01821046  RH  021%=      5-min Rain = 0
KHO1 241604Z 03007KT 18/M04 A3013 RMK A01 T01821039  RH  022%=      5-min Rain = 0
KHO1 241605Z 02007KT 18/M04 A3013 RMK A01 T01831041  RH  022%=      5-min Rain = 0
KHO1 241606Z 03006KT 18/M05 A3013 RMK A01 T01821046  RH  021%=      5-min Rain = 0
KHO1 241607Z 02005KT 18/M04 A3013 RMK A01 T01811043  RH  021%=      5-min Rain = 0
KHO1 241608Z 01005KT 18/M04 A3013 RMK A01 T01821041  RH  022%=      5-min Rain = 0
KHO1 241609Z 02004KT 18/M04 A3013 RMK A01 T01841039  RH  022%=      5-min Rain = 0
KHO1 241610Z 03004KT 19/M04 A3013 RMK A01 T01861044  RH  021%=      5-min Rain = 0
KHO1 241611Z 01005KT 19/M05 A3013 RMK A01 T01881046  RH  020%=      5-min Rain = 0
KHO1 241612Z 02003KT 19/M05 A3013 RMK A01 T01871052  RH  019%=      5-min Rain = 0
KHO1 241613Z 01004KT 19/M05 A3013 RMK A01 T01871050  RH  020%=      5-min Rain = 0
KHO1 241614Z 01004KT 19/M05 A3013 RMK A01 T01861054  RH  019%=      5-min Rain = 0
KHO1 241615Z 02004KT 19/M05 A3013 RMK A01 T01851050  RH  020%=      5-min Rain = 0
KHO1 241616Z 03004KT 19/M05 A3013 RMK A01 T01851048  RH  020%=      5-min Rain = 0
KHO1 241617Z 02004KT 19/M05 A3013 RMK A01 T01871047  RH  020%=      5-min Rain = 0
KHO1 241618Z 02005KT 19/M05 A3013 RMK A01 T01891049  RH  019%=      5-min Rain = 0
KHO1 241619Z 02005KT 19/M05 A3013 RMK A01 T01901048  RH  019%=      5-min Rain = 0
KHO1 241620Z 02007KT 19/M04 A3013 RMK A01 T01911042  RH  020%=      5-min Rain = 0
KHO1 241621Z 02007KT 19/M04 A3013 RMK A01 T01881044  RH  020%=      5-min Rain = 0
KHO1 241622Z 02006KT 19/M04 A3013 RMK A01 T01871042  RH  021%=      5-min Rain = 0
KHO1 241623Z 02005KT 19/M05 A3013 RMK A01 T01881045  RH  020%=      5-min Rain = 0
KHO1 241624Z 03005KT 19/M05 A3013 RMK A01 T01881045  RH  020%=      5-min Rain = 0
KHO1 241625Z 05005KT 19/M05 A3013 RMK A01 T01881046  RH  020%=      5-min Rain = 0
KHO1 241626Z 05005KT 19/M05 A3013 RMK A01 T01891048  RH  020%=      5-min Rain = 0
KHO1 241627Z 05003KT 19/M04 A3013 RMK A01 T01901043  RH  020%=      5-min Rain = 0
KHO1 241628Z 04005KT 19/M04 A3013 RMK A01 T01921042  RH  020%=      5-min Rain = 0
KHO1 241629Z 03006KT 19/M04 A3013 RMK A01 T01931044  RH  020%=      5-min Rain = 0
KHO1 241630Z 04006KT 19/M05 A3013 RMK A01 T01911050  RH  019%=      5-min Rain = 0
KHO1 241631Z 05005KT 19/M05 A3013 RMK A01 T01911047  RH  020%=      5-min Rain = 0
KHO1 241632Z 04004KT 19/M05 A3013 RMK A01 T01921049  RH  019%=      5-min Rain = 0
KHO1 241633Z 02004KT 19/M05 A3013 RMK A01 T01931052  RH  019%=      5-min Rain = 0
KHO1 241634Z 02005KT 19/M06 A3013 RMK A01 T01921061  RH  017%=      5-min Rain = 0
KHO1 241635Z 03006KT 19/M06 A3013 RMK A01 T01901062  RH  017%=      5-min Rain = 0
KHO1 241636Z 03004KT 19/M06 A3013 RMK A01 T01881062  RH  018%=      5-min Rain = 0
KHO1 241637Z 02005KT 19/M06 A3013 RMK A01 T01881062  RH  018%=      5-min Rain = 0
KHO1 241638Z 02005KT 19/M06 A3013 RMK A01 T01881061  RH  018%=      5-min Rain = 0
KHO1 241639Z 00004KT 19/M07 A3013 RMK A01 T01881065  RH  017%=      5-min Rain = 0
KHO1 241640Z 02004KT 19/M06 A3013 RMK A01 T01881061  RH  018%=      5-min Rain = 0
KHO1 241641Z 03004KT 19/M06 A3013 RMK A01 T01891059  RH  018%=      5-min Rain = 0
KHO1 241642Z 04005KT 19/M06 A3013 RMK A01 T01911062  RH  018%=      5-min Rain = 0
KHO1 241643Z 03003KT 19/M06 A3013 RMK A01 T01921061  RH  017%=      5-min Rain = 0
KHO1 241644Z 35001KT 19/M06 A3013 RMK A01 T01931060  RH  018%=      5-min Rain = 0
KHO1 241645Z 03005KT 19/M06 A3013 RMK A01 T01941059  RH  017%=      5-min Rain = 0
KHO1 241646Z 03006KT 19/M05 A3013 RMK A01 T01941054  RH  018%=      5-min Rain = 0
KHO1 241647Z 04004KT 20/M05 A3013 RMK A01 T01951049  RH  019%=      5-min Rain = 0
KHO1 241648Z 03002KT 20/M05 A3013 RMK A01 T01971053  RH  018%=      5-min Rain = 0
KHO1 241649Z 04005KT 20/M05 A3013 RMK A01 T01981054  RH  018%=      5-min Rain = 0
KHO1 241650Z 01007KT 20/M05 A3013 RMK A01 T01961053  RH  018%=      5-min Rain = 0
KHO1 241651Z 02005KT 19/M05 A3013 RMK A01 T01941050  RH  019%=      5-min Rain = 0
KHO1 241652Z 01005KT 20/M05 A3013 RMK A01 T01951049  RH  019%=      5-min Rain = 0
KHO1 241653Z 04005KT 20/M05 A3013 RMK A01 T01971045  RH  019%=      5-min Rain = 0
KHO1 241654Z 02006KT 20/M05 A3013 RMK A01 T01991049  RH  018%=      5-min Rain = 0
KHO1 241655Z 02005KT 20/M05 A3013 RMK A01 T01981052  RH  018%=      5-min Rain = 0
KHO1 241656Z 01004KT 20/M05 A3013 RMK A01 T01971053  RH  018%=      5-min Rain = 0
KHO1 241657Z 02004KT 20/M05 A3013 RMK A01 T01971048  RH  019%=      5-min Rain = 0
KHO1 241658Z 06005KT 20/M05 A3013 RMK A01 T01991048  RH  018%=      5-min Rain = 0
KHO1 241659Z 05004KT 20/M05 A3013 RMK A01 T02001049  RH  018%=      5-min Rain = 0
KHO1 241700Z 06004KT 20/M05 A3014 RMK A01 T02011049  RH  018%=      5-min Rain = 0
KHO1 241701Z 06003KT 20/M05 A3014 RMK A01 T02021048  RH  018%=      5-min Rain = 0
KHO1 241702Z 06004KT 20/M04 A3014 RMK A01 T02041043  RH  019%=      5-min Rain = 0
KHO1 241703Z 06004KT 21/M05 A3014 RMK A01 T02061047  RH  018%=      5-min Rain = 0
KHO1 241704Z 03005KT 21/M05 A3014 RMK A01 T02061053  RH  017%=      5-min Rain = 0
KHO1 241705Z 04007KT 20/M05 A3014 RMK A01 T02041053  RH  017%=      5-min Rain = 0
KHO1 241706Z 05005KT 20/M05 A3014 RMK A01 T02001053  RH  018%=      5-min Rain = 0
KHO1 241707Z 02004KT 20/M05 A3014 RMK A01 T02001053  RH  018%=      5-min Rain = 0
KHO1 241708Z 00003KT 20/M05 A3014 RMK A01 T01991052  RH  018%=      5-min Rain = 0
KHO1 241709Z 04005KT 20/M04 A3014 RMK A01 T01991044  RH  019%=      5-min Rain = 0
KHO1 241710Z 03007KT 20/M05 A3014 RMK A01 T02001052  RH  018%=      5-min Rain = 0
KHO1 241711Z 03003KT 20/M06 A3014 RMK A01 T01991057  RH  017%=      5-min Rain = 0
KHO1 241712Z 02006KT 20/M05 A3013 RMK A01 T01991051  RH  018%=      5-min Rain = 0
KHO1 241713Z 03005KT 20/M05 A3013 RMK A01 T02001045  RH  019%=      5-min Rain = 0
KHO1 241714Z 03006KT 20/M06 A3013 RMK A01 T02011055  RH  017%=      5-min Rain = 0
KHO1 241715Z 04004KT 20/M06 A3014 RMK A01 T02001055  RH  017%=      5-min Rain = 0
KHO1 241716Z 05002KT 20/M06 A3013 RMK A01 T01991057  RH  017%=      5-min Rain = 0
KHO1 241717Z 04003KT 20/M06 A3013 RMK A01 T01991055  RH  018%=      5-min Rain = 0
KHO1 241718Z 04003KT 20/M05 A3013 RMK A01 T01991047  RH  019%=      5-min Rain = 0
KHO1 241719Z 02006KT 20/M05 A3013 RMK A01 T02011051  RH  018%=      5-min Rain = 0
KHO1 241720Z 01005KT 20/M05 A3013 RMK A01 T02001053  RH  018%=      5-min Rain = 0
KHO1 241721Z 01003KT 20/M06 A3013 RMK A01 T01991055  RH  017%=      5-min Rain = 0
KHO1 241722Z 02004KT 20/M05 A3013 RMK A01 T02001048  RH  018%=      5-min Rain = 0
KHO1 241723Z 05005KT 20/M05 A3013 RMK A01 T02021048  RH  018%=      5-min Rain = 0
KHO1 241724Z 05003KT 20/M06 A3013 RMK A01 T02021055  RH  017%=      5-min Rain = 0
KHO1 241725Z 08001KT 20/M06 A3013 RMK A01 T02011056  RH  017%=      5-min Rain = 0
KHO1 241726Z 08001KT 20/M05 A3013 RMK A01 T02011051  RH  018%=      5-min Rain = 0
KHO1 241727Z 07003KT 20/M05 A3013 RMK A01 T02031046  RH  018%=      5-min Rain = 0
KHO1 241728Z 03006KT 21/M04 A3013 RMK A01 T02051044  RH  018%=      5-min Rain = 0
KHO1 241729Z 03005KT 20/M05 A3013 RMK A01 T02031053  RH  017%=      5-min Rain = 0
KHO1 241730Z 03005KT 20/M05 A3013 RMK A01 T02001054  RH  017%=      5-min Rain = 0
KHO1 241731Z 02003KT 20/M05 A3014 RMK A01 T01991050  RH  018%=      5-min Rain = 0
KHO1 241732Z 03005KT 20/M05 A3013 RMK A01 T02001051  RH  018%=      5-min Rain = 0
KHO1 241733Z 05005KT 20/M05 A3013 RMK A01 T02001049  RH  018%=      5-min Rain = 0
KHO1 241734Z 06003KT 20/M05 A3014 RMK A01 T02021047  RH  018%=      5-min Rain = 0
KHO1 241735Z 04003KT 21/M05 A3014 RMK A01 T02051046  RH  018%=      5-min Rain = 0
KHO1 241736Z 01005KT 21/M05 A3013 RMK A01 T02071050  RH  017%=      5-min Rain = 0
KHO1 241737Z 02006KT 21/M05 A3014 RMK A01 T02051050  RH  018%=      5-min Rain = 0
KHO1 241738Z 01006KT 21/M05 A3014 RMK A01 T02051049  RH  018%=      5-min Rain = 0
KHO1 241739Z 01004KT 20/M06 A3014 RMK A01 T02041058  RH  017%=      5-min Rain = 0
KHO1 241740Z 02005KT 20/M05 A3014 RMK A01 T02031051  RH  018%=      5-min Rain = 0
KHO1 241741Z 01005KT 20/M05 A3014 RMK A01 T02041050  RH  018%=      5-min Rain = 0
KHO1 241742Z 01005KT 21/M05 A3014 RMK A01 T02051048  RH  018%=      5-min Rain = 0
KHO1 241743Z 00006KT 21/M05 A3014 RMK A01 T02061053  RH  017%=      5-min Rain = 0
KHO1 241744Z 01005KT 21/M06 A3014 RMK A01 T02051058  RH  016%=      5-min Rain = 0
KHO1 241745Z 36004KT 20/M06 A3014 RMK A01 T02031059  RH  016%=      5-min Rain = 0
KHO1 241746Z 35002KT 20/M06 A3014 RMK A01 T02031056  RH  017%=      5-min Rain = 0
KHO1 241747Z 01003KT 20/M05 A3013 RMK A01 T02041047  RH  018%=      5-min Rain = 0
KHO1 241748Z 04005KT 21/M04 A3014 RMK A01 T02081039  RH  019%=      5-min Rain = 0
KHO1 241749Z 04005KT 21/M04 A3014 RMK A01 T02121043  RH  018%=      5-min Rain = 0
KHO1 241750Z 04002KT 21/M04 A3013 RMK A01 T02141043  RH  017%=      5-min Rain = 0
KHO1 241751Z 04004KT 22/M04 A3013 RMK A01 T02161040  RH  018%=      5-min Rain = 0
KHO1 241752Z 04004KT 22/M05 A3013 RMK A01 T02171045  RH  017%=      5-min Rain = 0
KHO1 241753Z 06005KT 22/M05 A3013 RMK A01 T02171048  RH  017%=      5-min Rain = 0
KHO1 241754Z 05003KT 22/M06 A3013 RMK A01 T02151057  RH  016%=      5-min Rain = 0
KHO1 241755Z 10003KT 21/M06 A3013 RMK A01 T02131055  RH  016%=      5-min Rain = 0
KHO1 241756Z 09001KT 21/M06 A3013 RMK A01 T02111060  RH  016%=      5-min Rain = 0
KHO1 241757Z 05003KT 21/M05 A3013 RMK A01 T02121045  RH  017%=      5-min Rain = 0
KHO1 241758Z 05007KT 22/M04 A3013 RMK A01 T02151044  RH  017%=      5-min Rain = 0
KHO1 241759Z 06004KT 22/M05 A3013 RMK A01 T02171047  RH  017%=      5-min Rain = 0
KHO1 241800Z 03006KT 22/M05 A3013 RMK A01 T02181048  RH  016%=      5-min Rain = 0
KHO1 241801Z 04005KT 22/M05 A3013 RMK A01 T02171047  RH  017%=      5-min Rain = 0
KHO1 241802Z 04005KT 22/M05 A3013 RMK A01 T02161050  RH  016%=      5-min Rain = 0
KHO1 241803Z 03005KT 22/M05 A3013 RMK A01 T02161048  RH  017%=      5-min Rain = 0
KHO1 241804Z 05004KT 22/M05 A3012 RMK A01 T02171048  RH  017%=      5-min Rain = 0
KHO1 241805Z 04004KT 22/M05 A3012 RMK A01 T02191051  RH  016%=      5-min Rain = 0
KHO1 241806Z 06004KT 22/M05 A3012 RMK A01 T02201046  RH  016%=      5-min Rain = 0
KHO1 241807Z 09003KT 22/M05 A3012 RMK A01 T02221049  RH  016%=      5-min Rain = 0
KHO1 241808Z 07004KT 22/M05 A3012 RMK A01 T02231046  RH  016%=      5-min Rain = 0
KHO1 241809Z 07004KT 23/M05 A3012 RMK A01 T02251047  RH  016%=      5-min Rain = 0
KHO1 241810Z 07004KT 23/M04 A3012 RMK A01 T02261042  RH  016%=      5-min Rain = 0
KHO1 241811Z 09004KT 23/M04 A3012 RMK A01 T02281039  RH  017%=      5-min Rain = 0
KHO1 241812Z 09003KT 23/M04 A3012 RMK A01 T02311044  RH  016%=      5-min Rain = 0
KHO1 241813Z 07003KT 23/M05 A3012 RMK A01 T02321047  RH  015%=      5-min Rain = 0
KHO1 241814Z 06002KT 23/M05 A3012 RMK A01 T02331051  RH  015%=      5-min Rain = 0
KHO1 241815Z 05003KT 23/M05 A3012 RMK A01 T02321051  RH  015%=      5-min Rain = 0
KHO1 241816Z 04004KT 23/M05 A3012 RMK A01 T02321051  RH  015%=      5-min Rain = 0
KHO1 241817Z 06003KT 23/M04 A3012 RMK A01 T02311044  RH  016%=      5-min Rain = 0
KHO1 241818Z 12002KT 23/M05 A3012 RMK A01 T02321047  RH  015%=      5-min Rain = 0
KHO1 241819Z 08003KT 23/M05 A3012 RMK A01 T02341050  RH  015%=      5-min Rain = 0
KHO1 241820Z 07003KT 24/M05 A3012 RMK A01 T02361053  RH  014%=      5-min Rain = 0
KHO1 241821Z 06002KT 24/M06 A3012 RMK A01 T02361055  RH  014%=      5-min Rain = 0
KHO1 241822Z 04002KT 24/M05 A3012 RMK A01 T02361052  RH  014%=      5-min Rain = 0
KHO1 241823Z 06004KT 24/M05 A3012 RMK A01 T02371050  RH  014%=      5-min Rain = 0
KHO1 241824Z 03004KT 24/M05 A3012 RMK A01 T02351054  RH  014%=      5-min Rain = 0
KHO1 241825Z 04006KT 23/M05 A3011 RMK A01 T02311053  RH  015%=      5-min Rain = 0
KHO1 241826Z 03005KT 23/M06 A3011 RMK A01 T02281058  RH  014%=      5-min Rain = 0
KHO1 241827Z 02005KT 23/M05 A3011 RMK A01 T02281054  RH  015%=      5-min Rain = 0
KHO1 241828Z 00003KT 23/M06 A3011 RMK A01 T02281062  RH  014%=      5-min Rain = 0
KHO1 241829Z 36001KT 23/M06 A3011 RMK A01 T02271064  RH  014%=      5-min Rain = 0
KHO1 241830Z 34000KT 23/M07 A3011 RMK A01 T02261065  RH  014%=      5-min Rain = 0
KHO1 241831Z 33000KT 23/M06 A3011 RMK A01 T02271061  RH  014%=      5-min Rain = 0
KHO1 241832Z 00000KT 23/M06 A3011 RMK A01 T02281062  RH  014%=      5-min Rain = 0
KHO1 241833Z 26001KT 23/M06 A3011 RMK A01 T02291062  RH  014%=      5-min Rain = 0
KHO1 241834Z 12001KT 23/M06 A3011 RMK A01 T02281058  RH  014%=      5-min Rain = 0
KHO1 241835Z 06001KT 23/M06 A3011 RMK A01 T02311058  RH  014%=      5-min Rain = 0
KHO1 241836Z 15002KT 23/M06 A3011 RMK A01 T02321063  RH  013%=      5-min Rain = 0
KHO1 241837Z 19002KT 23/M06 A3011 RMK A01 T02281062  RH  014%=      5-min Rain = 0
KHO1 241838Z 17003KT 23/M06 A3011 RMK A01 T02271064  RH  014%=      5-min Rain = 0
KHO1 241839Z 15001KT 23/M06 A3011 RMK A01 T02271064  RH  014%=      5-min Rain = 0
KHO1 241840Z 12001KT 23/M07 A3011 RMK A01 T02271065  RH  014%=      5-min Rain = 0
KHO1 241841Z 08001KT 23/M06 A3011 RMK A01 T02291060  RH  014%=      5-min Rain = 0
KHO1 241842Z 08003KT 23/M05 A3011 RMK A01 T02331054  RH  014%=      5-min Rain = 0
KHO1 241843Z 11004KT 24/M05 A3011 RMK A01 T02371052  RH  014%=      5-min Rain = 0
KHO1 241844Z 10008KT 24/M05 A3011 RMK A01 T02411049  RH  014%=      5-min Rain = 0
KHO1 241845Z 11006KT 24/M05 A3011 RMK A01 T02431054  RH  013%=      5-min Rain = 0
KHO1 241846Z 10004KT 24/M05 A3011 RMK A01 T02441054  RH  013%=      5-min Rain = 0
KHO1 241847Z 11003KT 25/M05 A301 RMK A01 T02451053  RH  013%=      5-min Rain = 0
KHO1 241848Z 10002KT 25/M05 A301 RMK A01 T02451052  RH  014%=      5-min Rain = 0
KHO1 241849Z 09005KT 25/M05 A301 RMK A01 T02471053  RH  013%=      5-min Rain = 0
KHO1 241850Z 08002KT 25/M05 A301 RMK A01 T02481054  RH  013%=      5-min Rain = 0
KHO1 241851Z 06001KT 25/M06 A301 RMK A01 T02501057  RH  013%=      5-min Rain = 0
KHO1 241852Z 14003KT 25/M05 A301 RMK A01 T02501052  RH  013%=      5-min Rain = 0
KHO1 241853Z 14005KT 24/M06 A301 RMK A01 T02421059  RH  013%=      5-min Rain = 0
KHO1 241854Z 13004KT 24/M06 A301 RMK A01 T02371060  RH  013%=      5-min Rain = 0
KHO1 241855Z 14005KT 24/M06 A301 RMK A01 T02361063  RH  013%=      5-min Rain = 0
KHO1 241856Z 16001KT 23/M06 A301 RMK A01 T02341064  RH  013%=      5-min Rain = 0
KHO1 241857Z 28002KT 24/M06 A301 RMK A01 T02351064  RH  013%=      5-min Rain = 0
KHO1 241858Z 31003KT 23/M06 A301 RMK A01 T02341062  RH  013%=      5-min Rain = 0
KHO1 241859Z 14002KT 24/M06 A301 RMK A01 T02351057  RH  014%=      5-min Rain = 0
KHO1 241900Z 19010KT 24/M05 A301 RMK A01 T02371054  RH  014%=      5-min Rain = 0
KHO1 241901Z 20008KT 24/M06 A301 RMK A01 T02361064  RH  013%=      5-min Rain = 0
KHO1 241902Z 21008KT 24/M07 A301 RMK A01 T02351065  RH  013%=      5-min Rain = 0
KHO1 241903Z 15008KT 23/M06 A301 RMK A01 T02331064  RH  013%=      5-min Rain = 0
KHO1 241904Z 12007KT 23/M06 A3009 RMK A01 T02331060  RH  014%=      5-min Rain = 0
KHO1 241905Z 11006KT 24/M06 A3009 RMK A01 T02371058  RH  014%=      5-min Rain = 0
KHO1 241906Z 11003KT 24/M06 A3009 RMK A01 T02401060  RH  013%=      5-min Rain = 0
KHO1 241907Z 21003KT 24/M06 A301 RMK A01 T02411058  RH  013%=      5-min Rain = 0
KHO1 241908Z 25002KT 24/M07 A301 RMK A01 T02381066  RH  013%=      5-min Rain = 0
KHO1 241909Z 23005G11KT 24/M07 A301 RMK A01 T02371068  RH  013%=      5-min Rain = 0
KHO1 241910Z 23012KT 24/M08 A301 RMK A01 T02351079  RH  012%=      5-min Rain = 0
KHO1 241911Z 23012KT 23/M08 A301 RMK A01 T02331082  RH  012%=      5-min Rain = 0
KHO1 241912Z 21008KT 23/M09 A301 RMK A01 T02301086  RH  011%=      5-min Rain = 0
KHO1 241913Z 21007KT 23/M08 A301 RMK A01 T02321076  RH  012%=      5-min Rain = 0
KHO1 241914Z 21010KT 23/M08 A301 RMK A01 T02331079  RH  012%=      5-min Rain = 0
KHO1 241915Z 20010KT 23/M08 A301 RMK A01 T02331081  RH  012%=      5-min Rain = 0
KHO1 241916Z 21009KT 23/M08 A301 RMK A01 T02321083  RH  012%=      5-min Rain = 0
KHO1 241917Z 24007KT 23/M08 A3009 RMK A01 T02301080  RH  012%=      5-min Rain = 0
KHO1 241918Z 22012KT 23/M08 A3009 RMK A01 T02321081  RH  012%=      5-min Rain = 0
KHO1 241919Z 24012KT 23/M08 A3009 RMK A01 T02311081  RH  012%=      5-min Rain = 0
KHO1 241920Z 23010KT 23/M08 A3009 RMK A01 T02321082  RH  012%=      5-min Rain = 0
KHO1 241921Z 23010G15KT 23/M08 A3009 RMK A01 T02321081  RH  012%=      5-min Rain = 0
KHO1 241922Z 24014KT 23/M08 A3009 RMK A01 T02341078  RH  012%=      5-min Rain = 0
KHO1 241923Z 25011KT 24/M08 A3009 RMK A01 T02361079  RH  012%=      5-min Rain = 0
KHO1 241924Z 24009KT 24/M08 A3009 RMK A01 T02351080  RH  012%=      5-min Rain = 0
KHO1 241925Z 23013KT 24/M09 A3009 RMK A01 T02351085  RH  011%=      5-min Rain = 0
KHO1 241926Z 26006KT 23/M09 A3009 RMK A01 T02311088  RH  011%=      5-min Rain = 0
KHO1 241927Z 25007KT 23/M09 A3009 RMK A01 T02311085  RH  011%=      5-min Rain = 0
KHO1 241928Z 25009KT 23/M08 A3009 RMK A01 T02331080  RH  012%=      5-min Rain = 0
KHO1 241929Z 25009KT 24/M08 A3009 RMK A01 T02361081  RH  011%=      5-min Rain = 0
KHO1 241930Z 26010KT 24/M08 A3009 RMK A01 T02381080  RH  011%=      5-min Rain = 0
KHO1 241931Z 26014KT 24/M09 A3009 RMK A01 T02381086  RH  011%=      5-min Rain = 0
KHO1 241932Z 26013KT 24/M09 A3009 RMK A01 T02381087  RH  011%=      5-min Rain = 0
KHO1 241933Z 26014KT 24/M09 A3009 RMK A01 T02361090  RH  011%=      5-min Rain = 0
KHO1 241934Z 26011KT 24/M09 A3009 RMK A01 T02351088  RH  011%=      5-min Rain = 0
KHO1 241935Z 25011KT 23/M09 A3009 RMK A01 T02341088  RH  011%=      5-min Rain = 0
KHO1 241936Z 27011KT 24/M08 A3009 RMK A01 T02351083  RH  011%=      5-min Rain = 0
KHO1 241937Z 26011KT 24/M09 A3009 RMK A01 T02371089  RH  011%=      5-min Rain = 0
KHO1 241938Z 25013KT 24/M09 A3009 RMK A01 T02351091  RH  011%=      5-min Rain = 0
KHO1 241939Z 26007KT 23/M09 A3009 RMK A01 T02331094  RH  011%=      5-min Rain = 0
KHO1 241940Z 28008G15KT 23/M08 A3009 RMK A01 T02341082  RH  011%=      5-min Rain = 0
KHO1 241941Z 26013KT 24/M09 A3009 RMK A01 T02361087  RH  011%=      5-min Rain = 0
KHO1 241942Z 26011KT 24/M09 A3009 RMK A01 T02361088  RH  011%=      5-min Rain = 0
KHO1 241943Z 27014KT 24/M09 A3009 RMK A01 T02361087  RH  011%=      5-min Rain = 0
KHO1 241944Z 25014KT 24/M09 A3009 RMK A01 T02371085  RH  011%=      5-min Rain = 0
KHO1 241945Z 26012KT 24/M09 A3009 RMK A01 T02381085  RH  011%=      5-min Rain = 0
KHO1 241946Z 28009KT 24/M08 A3009 RMK A01 T02381081  RH  011%=      5-min Rain = 0
KHO1 241947Z 27010KT 24/M09 A3009 RMK A01 T02391086  RH  011%=      5-min Rain = 0
KHO1 241948Z 27011KT 24/M09 A3009 RMK A01 T02361087  RH  011%=      5-min Rain = 0
KHO1 241949Z 27009KT 24/M08 A3009 RMK A01 T02351082  RH  011%=      5-min Rain = 0
KHO1 241950Z 25005KT 24/M09 A3009 RMK A01 T02351087  RH  011%=      5-min Rain = 0
KHO1 241951Z 27007KT 23/M08 A3009 RMK A01 T02331084  RH  011%=      5-min Rain = 0
KHO1 241952Z 29010KT 24/M08 A3009 RMK A01 T02371080  RH  011%=      5-min Rain = 0
KHO1 241953Z 28009KT 24/M09 A3009 RMK A01 T02371087  RH  011%=      5-min Rain = 0
KHO1 241954Z 25010KT 24/M08 A3009 RMK A01 T02361084  RH  011%=      5-min Rain = 0
KHO1 241955Z 23010KT 24/M09 A3009 RMK A01 T02361085  RH  011%=      5-min Rain = 0
KHO1 241956Z 26007KT 24/M09 A3009 RMK A01 T02371086  RH  011%=      5-min Rain = 0
KHO1 241957Z 26005KT 24/M09 A3008 RMK A01 T02371085  RH  011%=      5-min Rain = 0
KHO1 241958Z 25004KT 24/M08 A3008 RMK A01 T02391082  RH  011%=      5-min Rain = 0
KHO1 241959Z 23010G18KT 24/M09 A3008 RMK A01 T02401086  RH  011%=      5-min Rain = 0
KHO1 242000Z 27018G26KT 24/M09 A3008 RMK A01 T02401088  RH  011%=      5-min Rain = 0
KHO1 242001Z 30014KT 24/M09 A3008 RMK A01 T02411090  RH  010%=      5-min Rain = 0
KHO1 242002Z 27012KT 24/M09 A3008 RMK A01 T02401087  RH  011%=      5-min Rain = 0
KHO1 242003Z 26012KT 24/M10 A3008 RMK A01 T02401096  RH  010%=      5-min Rain = 0
KHO1 242004Z 26013KT 24/M10 A3009 RMK A01 T02381098  RH  010%=      5-min Rain = 0
KHO1 242005Z 27014KT 24/M09 A3009 RMK A01 T02401090  RH  010%=      5-min Rain = 0
KHO1 242006Z 26014KT 24/M10 A3009 RMK A01 T02411095  RH  010%=      5-min Rain = 0
KHO1 242007Z 25011KT 24/M10 A3009 RMK A01 T02391096  RH  010%=      5-min Rain = 0
KHO1 242008Z 28008KT 24/M09 A3009 RMK A01 T02381091  RH  010%=      5-min Rain = 0
KHO1 242009Z 31010KT 24/M09 A3008 RMK A01 T02401089  RH  011%=      5-min Rain = 0
KHO1 242010Z 30007KT 24/M09 A3008 RMK A01 T02371094  RH  010%=      5-min Rain = 0
KHO1 242011Z 26009KT 24/M09 A3008 RMK A01 T02371092  RH  010%=      5-min Rain = 0
KHO1 242012Z 26013KT 24/M10 A3008 RMK A01 T02381100  RH  010%=      5-min Rain = 0
KHO1 242013Z 28013KT 24/M10 A3008 RMK A01 T02391102  RH  010%=      5-min Rain = 0
KHO1 242014Z 28012KT 24/M10 A3008 RMK A01 T02401101  RH  010%=      5-min Rain = 0
KHO1 242015Z 29009KT 24/M10 A3008 RMK A01 T02391104  RH  009%=      5-min Rain = 0
KHO1 242016Z 28007KT 24/M10 A3008 RMK A01 T02391098  RH  010%=      5-min Rain = 0
KHO1 242017Z 25008KT 24/M10 A3008 RMK A01 T02391102  RH  010%=      5-min Rain = 0
KHO1 242018Z 22009KT 24/M10 A3008 RMK A01 T02401100  RH  010%=      5-min Rain = 0
KHO1 242019Z 24011KT 24/M10 A3008 RMK A01 T02411097  RH  010%=      5-min Rain = 0
KHO1 242020Z 25012KT 24/M10 A3008 RMK A01 T02421097  RH  010%=      5-min Rain = 0
KHO1 242021Z 28014KT 24/M10 A3008 RMK A01 T02441096  RH  010%=      5-min Rain = 0
KHO1 242022Z 27013KT 24/M10 A3008 RMK A01 T02431102  RH  009%=      5-min Rain = 0
KHO1 242023Z 29012KT 24/M10 A3008 RMK A01 T02421102  RH  009%=      5-min Rain = 0
KHO1 242024Z 29013KT 24/M10 A3008 RMK A01 T02411100  RH  010%=      5-min Rain = 0
KHO1 242025Z 29010KT 24/M10 A3008 RMK A01 T02401099  RH  010%=      5-min Rain = 0
KHO1 242026Z 29011KT 24/M10 A3008 RMK A01 T02411102  RH  009%=      5-min Rain = 0
KHO1 242027Z 29010KT 24/M10 A3008 RMK A01 T02401098  RH  010%=      5-min Rain = 0
KHO1 242028Z 30006G11KT 24/M10 A3008 RMK A01 T02381095  RH  010%=      5-min Rain = 0
KHO1 242029Z 30009KT 24/M09 A3008 RMK A01 T02391092  RH  010%=      5-min Rain = 0
KHO1 242030Z 26011KT 24/M09 A3008 RMK A01 T02391092  RH  010%=      5-min Rain = 0
KHO1 242031Z 28012KT 24/M09 A3008 RMK A01 T02391093  RH  010%=      5-min Rain = 0
KHO1 242032Z 30007KT 24/M09 A3008 RMK A01 T02401089  RH  010%=      5-min Rain = 0
KHO1 242033Z 30009KT 24/M09 A3008 RMK A01 T02421090  RH  010%=      5-min Rain = 0
KHO1 242034Z 32009KT 24/M09 A3007 RMK A01 T02421086  RH  011%=      5-min Rain = 0
KHO1 242035Z 31011KT 24/M10 A3008 RMK A01 T02441095  RH  010%=      5-min Rain = 0
KHO1 242036Z 31006KT 24/M09 A3008 RMK A01 T02411091  RH  010%=      5-min Rain = 0
KHO1 242037Z 29006KT 24/M09 A3008 RMK A01 T02421088  RH  010%=      5-min Rain = 0
KHO1 242038Z 28007KT 24/M08 A3008 RMK A01 T02441084  RH  011%=      5-min Rain = 0
KHO1 242039Z 27009KT 25/M09 A3008 RMK A01 T02451090  RH  010%=      5-min Rain = 0
KHO1 242040Z 26010KT 25/M09 A3008 RMK A01 T02451086  RH  010%=      5-min Rain = 0
KHO1 242041Z 26009KT 24/M09 A3008 RMK A01 T02421088  RH  010%=      5-min Rain = 0
KHO1 242042Z 28006KT 24/M08 A3008 RMK A01 T02421082  RH  011%=      5-min Rain = 0
KHO1 242043Z 29006KT 24/M08 A3008 RMK A01 T02441078  RH  011%=      5-min Rain = 0
KHO1 242044Z 32005KT 25/M09 A3008 RMK A01 T02451088  RH  010%=      5-min Rain = 0
KHO1 242045Z 31005KT 24/M08 A3008 RMK A01 T02441084  RH  011%=      5-min Rain = 0
KHO1 242046Z 31003KT 24/M09 A3007 RMK A01 T02441085  RH  011%=      5-min Rain = 0
KHO1 242047Z 32007KT 24/M08 A3007 RMK A01 T02441084  RH  011%=      5-min Rain = 0
KHO1 242048Z 31007KT 24/M09 A3007 RMK A01 T02431087  RH  010%=      5-min Rain = 0
KHO1 242049Z 28008KT 24/M08 A3007 RMK A01 T02411082  RH  011%=      5-min Rain = 0
KHO1 242050Z 26007KT 24/M08 A3008 RMK A01 T02431080  RH  011%=      5-min Rain = 0
KHO1 242051Z 26009KT 24/M08 A3008 RMK A01 T02431082  RH  011%=      5-min Rain = 0
KHO1 242052Z 26009KT 24/M08 A3008 RMK A01 T02431082  RH  011%=      5-min Rain = 0
KHO1 242053Z 28010KT 24/M08 A3007 RMK A01 T02441081  RH  011%=      5-min Rain = 0
KHO1 242054Z 30011KT 25/M08 A3007 RMK A01 T02451084  RH  011%=      5-min Rain = 0
KHO1 242055Z 30006KT 24/M08 A3007 RMK A01 T02431078  RH  011%=      5-min Rain = 0
KHO1 242056Z 27006KT 24/M08 A3007 RMK A01 T02441082  RH  011%=      5-min Rain = 0
KHO1 242057Z 27006KT 24/M09 A3007 RMK A01 T02431088  RH  010%=      5-min Rain = 0
KHO1 242058Z 28006KT 24/M09 A3007 RMK A01 T02421087  RH  011%=      5-min Rain = 0
KHO1 242059Z 26014KT 24/M09 A3007 RMK A01 T02431090  RH  010%=      5-min Rain = 0
KHO1 242100Z 28011KT 24/M10 A3007 RMK A01 T02431098  RH  010%=      5-min Rain = 0
KHO1 242101Z 29009KT 25/M09 A3007 RMK A01 T02461092  RH  010%=      5-min Rain = 0
KHO1 242102Z 28014KT 25/M09 A3007 RMK A01 T02481092  RH  010%=      5-min Rain = 0
KHO1 242103Z 27013KT 25/M10 A3007 RMK A01 T02491095  RH  009%=      5-min Rain = 0
KHO1 242104Z 28009KT 25/M09 A3007 RMK A01 T02471093  RH  010%=      5-min Rain = 0
KHO1 242105Z 27009KT 25/M10 A3007 RMK A01 T02471100  RH  009%=      5-min Rain = 0
KHO1 242106Z 30008KT 24/M10 A3007 RMK A01 T02441099  RH  009%=      5-min Rain = 0
KHO1 242107Z 29007KT 24/M10 A3007 RMK A01 T02431101  RH  009%=      5-min Rain = 0
KHO1 242108Z 30005KT 24/M09 A3007 RMK A01 T02431094  RH  010%=      5-min Rain = 0
KHO1 242109Z 31009KT 25/M09 A3007 RMK A01 T02451090  RH  010%=      5-min Rain = 0
KHO1 242110Z 30009KT 25/M09 A3007 RMK A01 T02461090  RH  010%=      5-min Rain = 0
KHO1 242111Z 29012KT 24/M10 A3007 RMK A01 T02441096  RH  010%=      5-min Rain = 0
KHO1 242112Z 28009KT 24/M10 A3007 RMK A01 T02441096  RH  010%=      5-min Rain = 0
KHO1 242113Z 26009KT 25/M09 A3007 RMK A01 T02461094  RH  010%=      5-min Rain = 0
KHO1 242114Z 26012KT 25/M10 A3007 RMK A01 T02461096  RH  010%=      5-min Rain = 0
KHO1 242115Z 28013KT 25/M10 A3007 RMK A01 T02461099  RH  009%=      5-min Rain = 0
KHO1 242116Z 27011KT 25/M10 A3007 RMK A01 T02451096  RH  010%=      5-min Rain = 0
KHO1 242117Z 28012KT 25/M10 A3007 RMK A01 T02451095  RH  010%=      5-min Rain = 0
KHO1 242118Z 26009G14KT 24/M10 A3007 RMK A01 T02441097  RH  010%=      5-min Rain = 0
KHO1 242119Z 27008KT 24/M10 A3007 RMK A01 T02441095  RH  010%=      5-min Rain = 0
KHO1 242120Z 27007KT 24/M10 A3007 RMK A01 T02441096  RH  010%=      5-min Rain = 0
KHO1 242121Z 24009KT 25/M10 A3007 RMK A01 T02451095  RH  010%=      5-min Rain = 0
KHO1 242122Z 23008KT 24/M10 A3007 RMK A01 T02431098  RH  010%=      5-min Rain = 0
KHO1 242123Z 27004KT 24/M10 A3007 RMK A01 T02431096  RH  010%=      5-min Rain = 0
KHO1 242124Z 31008KT 24/M10 A3007 RMK A01 T02441097  RH  010%=      5-min Rain = 0
KHO1 242125Z 29007KT 25/M10 A3007 RMK A01 T02451097  RH  010%=      5-min Rain = 0
KHO1 242126Z 32006KT 25/M09 A3007 RMK A01 T02451094  RH  010%=      5-min Rain = 0
KHO1 242127Z 32009KT 25/M09 A3006 RMK A01 T02461092  RH  010%=      5-min Rain = 0
KHO1 242128Z 30010KT 25/M09 A3006 RMK A01 T02471093  RH  010%=      5-min Rain = 0
KHO1 242129Z 31011KT 25/M09 A3007 RMK A01 T02461093  RH  010%=      5-min Rain = 0
KHO1 242130Z 30011KT 25/M10 A3007 RMK A01 T02461099  RH  009%=      5-min Rain = 0
KHO1 242131Z 28008KT 25/M09 A3007 RMK A01 T02461094  RH  010%=      5-min Rain = 0
KHO1 242132Z 29008G13KT 25/M09 A3006 RMK A01 T02471094  RH  010%=      5-min Rain = 0
KHO1 242133Z 28010KT 25/M10 A3006 RMK A01 T02471096  RH  010%=      5-min Rain = 0
KHO1 242134Z 30008KT 25/M09 A3006 RMK A01 T02461093  RH  010%=      5-min Rain = 0
KHO1 242135Z 31009KT 25/M10 A3006 RMK A01 T02461097  RH  009%=      5-min Rain = 0
KHO1 242136Z 29008KT 25/M09 A3006 RMK A01 T02461089  RH  010%=      5-min Rain = 0
KHO1 242137Z 30008KT 25/M09 A3006 RMK A01 T02491093  RH  010%=      5-min Rain = 0
KHO1 242138Z 31009KT 25/M09 A3006 RMK A01 T02491094  RH  010%=      5-min Rain = 0
KHO1 242139Z 30009KT 25/M10 A3006 RMK A01 T02471100  RH  009%=      5-min Rain = 0
KHO1 242140Z 29010KT 25/M09 A3006 RMK A01 T02461093  RH  010%=      5-min Rain = 0
KHO1 242141Z 31011KT 25/M09 A3006 RMK A01 T02481091  RH  010%=      5-min Rain = 0
KHO1 242142Z 33010KT 25/M10 A3006 RMK A01 T02471099  RH  009%=      5-min Rain = 0
KHO1 242143Z 32006KT 25/M10 A3006 RMK A01 T02461099  RH  009%=      5-min Rain = 0
KHO1 242144Z 31006KT 25/M09 A3006 RMK A01 T02471090  RH  010%=      5-min Rain = 0
KHO1 242145Z 28006KT 25/M10 A3006 RMK A01 T02481099  RH  009%=      5-min Rain = 0
KHO1 242146Z 31006KT 25/M10 A3006 RMK A01 T02481095  RH  010%=      5-min Rain = 0
KHO1 242147Z 31007KT 25/M10 A3006 RMK A01 T02491095  RH  009%=      5-min Rain = 0
KHO1 242148Z 31006KT 25/M10 A3006 RMK A01 T02481100  RH  009%=      5-min Rain = 0
KHO1 242149Z 29006KT 25/M10 A3006 RMK A01 T02481096  RH  009%=      5-min Rain = 0
KHO1 242150Z 28008KT 25/M09 A3006 RMK A01 T02481089  RH  010%=      5-min Rain = 0
KHO1 242151Z 27008KT 25/M09 A3006 RMK A01 T02481091  RH  010%=      5-min Rain = 0
KHO1 242152Z 28007G17KT 25/M09 A3006 RMK A01 T02481085  RH  010%=      5-min Rain = 0
KHO1 242153Z 25016G22KT 25/M09 A3006 RMK A01 T02501085  RH  010%=      5-min Rain = 0
KHO1 242154Z 25013KT 25/M09 A3006 RMK A01 T02491088  RH  010%=      5-min Rain = 0
KHO1 242155Z 26012KT 25/M09 A3006 RMK A01 T02471091  RH  010%=      5-min Rain = 0
KHO1 242156Z 26010KT 25/M09 A3006 RMK A01 T02471091  RH  010%=      5-min Rain = 0
KHO1 242157Z 26011KT 25/M09 A3006 RMK A01 T02461090  RH  010%=      5-min Rain = 0
KHO1 242158Z 28009KT 25/M09 A3006 RMK A01 T02471092  RH  010%=      5-min Rain = 0
KHO1 242159Z 28012KT 25/M09 A3006 RMK A01 T02461091  RH  010%=      5-min Rain = 0
KHO1 242200Z 24007KT 25/M09 A3006 RMK A01 T02471088  RH  010%=      5-min Rain = 0
KHO1 242201Z 24009G16KT 25/M09 A3005 RMK A01 T02481085  RH  010%=      5-min Rain = 0
KHO1 242202Z 28007KT 25/M09 A3006 RMK A01 T02491088  RH  010%=      5-min Rain = 0
KHO1 242203Z 27005KT 25/M09 A3006 RMK A01 T02481087  RH  010%=      5-min Rain = 0
KHO1 242204Z 24006KT 25/M09 A3006 RMK A01 T02481089  RH  010%=      5-min Rain = 0
KHO1 242205Z 23005KT 25/M09 A3006 RMK A01 T02491086  RH  010%=      5-min Rain = 0
KHO1 242206Z 22006KT 25/M08 A3006 RMK A01 T02501083  RH  010%=      5-min Rain = 0
KHO1 242207Z 23006KT 25/M09 A3006 RMK A01 T02501089  RH  010%=      5-min Rain = 0
KHO1 242208Z 25009KT 25/M09 A3006 RMK A01 T02481092  RH  010%=      5-min Rain = 0
KHO1 242209Z 23007KT 25/M09 A3006 RMK A01 T02481085  RH  010%=      5-min Rain = 0
KHO1 242210Z 25005KT 25/M09 A3006 RMK A01 T02501086  RH  010%=      5-min Rain = 0
KHO1 242211Z 30004KT 25/M09 A3006 RMK A01 T02501086  RH  010%=      5-min Rain = 0
KHO1 242212Z 30008KT 25/M09 A3006 RMK A01 T02511087  RH  010%=      5-min Rain = 0
KHO1 242213Z 28010KT 25/M09 A3006 RMK A01 T02501093  RH  010%=      5-min Rain = 0
KHO1 242214Z 27009KT 25/M09 A3006 RMK A01 T02471093  RH  010%=      5-min Rain = 0
KHO1 242215Z 29009KT 25/M09 A3006 RMK A01 T02471090  RH  010%=      5-min Rain = 0
KHO1 242216Z 27010KT 25/M09 A3006 RMK A01 T02471090  RH  010%=      5-min Rain = 0
KHO1 242217Z 25010KT 25/M10 A3006 RMK A01 T02471096  RH  010%=      5-min Rain = 0
KHO1 242218Z 25007KT 25/M09 A3006 RMK A01 T02451094  RH  010%=      5-min Rain = 0
KHO1 242219Z 26007KT 25/M09 A3006 RMK A01 T02461091  RH  010%=      5-min Rain = 0
KHO1 242220Z 25007KT 25/M09 A3006 RMK A01 T02481085  RH  010%=      5-min Rain = 0
KHO1 242221Z 27008KT 25/M09 A3006 RMK A01 T02501086  RH  010%=      5-min Rain = 0
KHO1 242222Z 28010KT 25/M09 A3006 RMK A01 T02511089  RH  010%=      5-min Rain = 0
KHO1 242223Z 28010KT 25/M09 A3006 RMK A01 T02481094  RH  010%=      5-min Rain = 0
KHO1 242224Z 24005KT 25/M10 A3006 RMK A01 T02451095  RH  010%=      5-min Rain = 0
KHO1 242225Z 24005KT 25/M09 A3006 RMK A01 T02451091  RH  010%=      5-min Rain = 0
KHO1 242226Z 26005KT 25/M09 A3006 RMK A01 T02461093  RH  010%=      5-min Rain = 0
KHO1 242227Z 25006KT 25/M09 A3006 RMK A01 T02451091  RH  010%=      5-min Rain = 0
KHO1 242228Z 25007G13KT 25/M09 A3006 RMK A01 T02461086  RH  010%=      5-min Rain = 0
KHO1 242229Z 24012KT 25/M08 A3006 RMK A01 T02481083  RH  010%=      5-min Rain = 0
KHO1 242230Z 24015KT 25/M09 A3006 RMK A01 T02471086  RH  010%=      5-min Rain = 0
KHO1 242231Z 24011KT 25/M09 A3006 RMK A01 T02451085  RH  010%=      5-min Rain = 0
KHO1 242232Z 25011KT 25/M09 A3006 RMK A01 T02461089  RH  010%=      5-min Rain = 0
KHO1 242233Z 23007KT 24/M09 A3006 RMK A01 T02441087  RH  010%=      5-min Rain = 0
KHO1 242234Z 24011KT 25/M09 A3006 RMK A01 T02451086  RH  010%=      5-min Rain = 0
KHO1 242235Z 24010KT 24/M09 A3006 RMK A01 T02441087  RH  010%=      5-min Rain = 0
KHO1 242236Z 24012KT 24/M09 A3006 RMK A01 T02441086  RH  010%=      5-min Rain = 0
KHO1 242237Z 24012KT 24/M09 A3006 RMK A01 T02441087  RH  010%=      5-min Rain = 0
KHO1 242238Z 25011KT 24/M08 A3006 RMK A01 T02431084  RH  011%=      5-min Rain = 0
KHO1 242239Z 25009KT 24/M09 A3006 RMK A01 T02441088  RH  010%=      5-min Rain = 0
KHO1 242240Z 23006KT 24/M09 A3006 RMK A01 T02441087  RH  010%=      5-min Rain = 0
KHO1 242241Z 24005KT 24/M09 A3006 RMK A01 T02441089  RH  010%=      5-min Rain = 0
KHO1 242242Z 24004KT 24/M08 A3006 RMK A01 T02441084  RH  011%=      5-min Rain = 0
KHO1 242243Z 26003KT 25/M09 A3005 RMK A01 T02461088  RH  010%=      5-min Rain = 0
KHO1 242244Z 23003KT 25/M09 A3005 RMK A01 T02461088  RH  010%=      5-min Rain = 0
KHO1 242245Z 22003KT 25/M09 A3005 RMK A01 T02451091  RH  010%=      5-min Rain = 0
KHO1 242246Z 22002KT 24/M09 A3005 RMK A01 T02441094  RH  010%=      5-min Rain = 0
KHO1 242247Z 22002KT 24/M09 A3005 RMK A01 T02441092  RH  010%=      5-min Rain = 0
KHO1 242248Z 24004KT 25/M09 A3005 RMK A01 T02451089  RH  010%=      5-min Rain = 0
KHO1 242249Z 26005KT 25/M09 A3005 RMK A01 T02451089  RH  010%=      5-min Rain = 0
KHO1 242250Z 26007KT 25/M08 A3005 RMK A01 T02461084  RH  011%=      5-min Rain = 0
KHO1 242251Z 24007KT 25/M08 A3005 RMK A01 T02471082  RH  011%=      5-min Rain = 0
KHO1 242252Z 22004KT 25/M08 A3005 RMK A01 T02481082  RH  011%=      5-min Rain = 0
KHO1 242253Z 31008KT 25/M08 A3005 RMK A01 T02491082  RH  010%=      5-min Rain = 0
KHO1 242254Z 28007KT 25/M08 A3005 RMK A01 T02481084  RH  010%=      5-min Rain = 0
KHO1 242255Z 27005KT 25/M08 A3005 RMK A01 T02461084  RH  011%=      5-min Rain = 0
KHO1 242256Z 30005KT 25/M08 A3005 RMK A01 T02481078  RH  011%=      5-min Rain = 0
KHO1 242257Z 29006KT 25/M08 A3005 RMK A01 T02491080  RH  011%=      5-min Rain = 0
KHO1 242258Z 29007KT 25/M08 A3005 RMK A01 T02491081  RH  011%=      5-min Rain = 0
KHO1 242259Z 29007KT 25/M09 A3005 RMK A01 T02471085  RH  010%=      5-min Rain = 0
KHO1 242300Z 28005KT 25/M08 A3005 RMK A01 T02461083  RH  011%=      5-min Rain = 0
KHO1 242301Z 27003KT 25/M08 A3005 RMK A01 T02471077  RH  011%=      5-min Rain = 0
KHO1 242302Z 28003KT 25/M08 A3005 RMK A01 T02491076  RH  011%=      5-min Rain = 0
KHO1 242303Z 30006KT 25/M08 A3005 RMK A01 T02511082  RH  010%=      5-min Rain = 0
KHO1 242304Z 31006KT 25/M08 A3005 RMK A01 T02501082  RH  010%=      5-min Rain = 0
KHO1 242305Z 29005KT 25/M09 A3005 RMK A01 T02491086  RH  010%=      5-min Rain = 0
KHO1 242306Z 28007KT 25/M08 A3005 RMK A01 T02481080  RH  011%=      5-min Rain = 0
KHO1 242307Z 28006KT 25/M09 A3005 RMK A01 T02471085  RH  010%=      5-min Rain = 0
KHO1 242308Z 29005KT 25/M08 A3005 RMK A01 T02471082  RH  011%=      5-min Rain = 0
KHO1 242309Z 30004KT 25/M08 A3005 RMK A01 T02471084  RH  010%=      5-min Rain = 0
KHO1 242310Z 29003KT 25/M09 A3005 RMK A01 T02481085  RH  010%=      5-min Rain = 0
KHO1 242311Z 30005KT 25/M08 A3005 RMK A01 T02481078  RH  011%=      5-min Rain = 0
KHO1 242312Z 29004KT 25/M09 A3005 RMK A01 T02481085  RH  010%=      5-min Rain = 0
KHO1 242313Z 26007KT 25/M08 A3005 RMK A01 T02481084  RH  010%=      5-min Rain = 0
KHO1 242314Z 27006KT 25/M09 A3005 RMK A01 T02461088  RH  010%=      5-min Rain = 0
KHO1 242315Z 27005KT 25/M09 A3005 RMK A01 T02451086  RH  010%=      5-min Rain = 0
KHO1 242316Z 30007KT 25/M08 A3006 RMK A01 T02471082  RH  011%=      5-min Rain = 0
KHO1 242317Z 31008KT 25/M09 A3006 RMK A01 T02481085  RH  010%=      5-min Rain = 0
KHO1 242318Z 30007KT 25/M08 A3006 RMK A01 T02471084  RH  010%=      5-min Rain = 0
KHO1 242319Z 31006KT 25/M08 A3006 RMK A01 T02461084  RH  010%=      5-min Rain = 0
KHO1 242320Z 30006KT 25/M09 A3006 RMK A01 T02461086  RH  010%=      5-min Rain = 0
KHO1 242321Z 30008KT 25/M09 A3006 RMK A01 T02461087  RH  010%=      5-min Rain = 0
KHO1 242322Z 28006KT 25/M09 A3006 RMK A01 T02451088  RH  010%=      5-min Rain = 0
KHO1 242323Z 28006KT 24/M09 A3006 RMK A01 T02441090  RH  010%=      5-min Rain = 0
KHO1 242324Z 27005KT 24/M09 A3006 RMK A01 T02441087  RH  010%=      5-min Rain = 0
KHO1 242325Z 27003KT 25/M08 A3006 RMK A01 T02451083  RH  011%=      5-min Rain = 0
KHO1 242326Z 26004KT 25/M08 A3006 RMK A01 T02471081  RH  011%=      5-min Rain = 0
KHO1 242327Z 26006KT 25/M09 A3006 RMK A01 T02471088  RH  010%=      5-min Rain = 0
KHO1 242328Z 26004KT 25/M09 A3006 RMK A01 T02461089  RH  010%=      5-min Rain = 0
KHO1 242329Z 26004KT 25/M09 A3006 RMK A01 T02451090  RH  010%=      5-min Rain = 0
KHO1 242330Z 24002KT 25/M08 A3006 RMK A01 T02461083  RH  011%=      5-min Rain = 0
KHO1 242331Z 22004KT 25/M08 A3006 RMK A01 T02471083  RH  011%=      5-min Rain = 0
KHO1 242332Z 22004KT 25/M09 A3006 RMK A01 T02471086  RH  010%=      5-min Rain = 0
KHO1 242333Z 22004KT 25/M09 A3006 RMK A01 T02471085  RH  010%=      5-min Rain = 0
KHO1 242334Z 25004KT 25/M09 A3006 RMK A01 T02461090  RH  010%=      5-min Rain = 0
KHO1 242335Z 25002KT 25/M09 A3006 RMK A01 T02461090  RH  010%=      5-min Rain = 0
KHO1 242336Z 26001KT 25/M09 A3006 RMK A01 T02481085  RH  010%=      5-min Rain = 0
KHO1 242337Z 28002KT 25/M09 A3006 RMK A01 T02491086  RH  010%=      5-min Rain = 0
KHO1 242338Z 31003KT 25/M08 A3006 RMK A01 T02501082  RH  010%=      5-min Rain = 0
KHO1 242339Z 30005KT 25/M09 A3006 RMK A01 T02501086  RH  010%=      5-min Rain = 0
KHO1 242340Z 30006KT 25/M08 A3006 RMK A01 T02491081  RH  011%=      5-min Rain = 0
KHO1 242341Z 30005KT 25/M09 A3006 RMK A01 T02491085  RH  010%=      5-min Rain = 0
KHO1 242342Z 29006KT 25/M08 A3006 RMK A01 T02481080  RH  011%=      5-min Rain = 0
KHO1 242343Z 25004KT 25/M08 A3006 RMK A01 T02481082  RH  011%=      5-min Rain = 0
KHO1 242344Z 27005KT 25/M08 A3006 RMK A01 T02481078  RH  011%=      5-min Rain = 0
KHO1 242345Z 28005KT 25/M09 A3006 RMK A01 T02481089  RH  010%=      5-min Rain = 0
KHO1 242346Z 30005KT 25/M09 A3006 RMK A01 T02471088  RH  010%=      5-min Rain = 0
KHO1 242347Z 29006KT 25/M08 A3006 RMK A01 T02471083  RH  011%=      5-min Rain = 0
KHO1 242348Z 29006KT 25/M09 A3006 RMK A01 T02471087  RH  010%=      5-min Rain = 0
KHO1 242349Z 29004KT 25/M08 A3006 RMK A01 T02471083  RH  011%=      5-min Rain = 0
KHO1 242350Z 29003KT 25/M09 A3006 RMK A01 T02461090  RH  010%=      5-min Rain = 0
KHO1 242351Z 31004KT 25/M09 A3006 RMK A01 T02461086  RH  010%=      5-min Rain = 0
KHO1 242352Z 33004KT 25/M08 A3006 RMK A01 T02471083  RH  010%=      5-min Rain = 0
KHO1 242353Z 32004KT 25/M09 A3006 RMK A01 T02471088  RH  010%=      5-min Rain = 0
KHO1 242354Z 33005KT 25/M08 A3006 RMK A01 T02461083  RH  011%=      5-min Rain = 0
KHO1 242355Z 33006KT 25/M08 A3006 RMK A01 T02451082  RH  011%=      5-min Rain = 0
KHO1 242356Z 34006KT 25/M08 A3006 RMK A01 T02451084  RH  011%=      5-min Rain = 0
KHO1 242357Z 33007KT 24/M09 A3006 RMK A01 T02441088  RH  010%=      5-min Rain = 0
KHO1 242358Z 33006KT 24/M09 A3006 RMK A01 T02431088  RH  010%=      5-min Rain = 0
KHO1 242359Z 35006KT 24/M08 A3006 RMK A01 T02421084  RH  011%=      5-min Rain = 0
KHO1 250000Z 34007KT 24/M09 A3006 RMK A01 T02421088  RH  010%=      5-min Rain = 0
KHO1 250001Z 34005KT 24/M09 A3006 RMK A01 T02411087  RH  011%=      5-min Rain = 0
KHO1 250002Z 33004KT 24/M09 A3006 RMK A01 T02411086  RH  011%=      5-min Rain = 0
KHO1 250003Z 33004KT 24/M08 A3006 RMK A01 T02421083  RH  011%=      5-min Rain = 0
KHO1 250004Z 32006KT 24/M08 A3006 RMK A01 T02421083  RH  011%=      5-min Rain = 0
KHO1 250005Z 29007KT 24/M09 A3006 RMK A01 T02421085  RH  011%=      5-min Rain = 0
KHO1 250006Z 29005KT 24/M08 A3006 RMK A01 T02411083  RH  011%=      5-min Rain = 0
KHO1 250007Z 28006KT 24/M09 A3006 RMK A01 T02421086  RH  011%=      5-min Rain = 0
KHO1 250008Z 28006KT 24/M09 A3006 RMK A01 T02411088  RH  011%=      5-min Rain = 0
KHO1 250009Z 29005KT 24/M09 A3006 RMK A01 T02411086  RH  011%=      5-min Rain = 0
KHO1 250010Z 30005KT 24/M08 A3006 RMK A01 T02411084  RH  011%=      5-min Rain = 0
KHO1 250011Z 31006KT 24/M08 A3006 RMK A01 T02411082  RH  011%=      5-min Rain = 0
KHO1 250012Z 31006KT 24/M09 A3006 RMK A01 T02411085  RH  011%=      5-min Rain = 0
KHO1 250013Z 31005KT 24/M08 A3006 RMK A01 T02401081  RH  011%=      5-min Rain = 0
KHO1 250014Z 33003KT 24/M07 A3006 RMK A01 T02411074  RH  012%=      5-min Rain = 0
KHO1 250015Z 32004KT 24/M08 A3006 RMK A01 T02411081  RH  011%=      5-min Rain = 0
KHO1 250016Z 32004KT 24/M08 A3007 RMK A01 T02411079  RH  011%=      5-min Rain = 0
KHO1 250017Z 31004KT 24/M08 A3007 RMK A01 T02411077  RH  011%=      5-min Rain = 0
KHO1 250018Z 30003KT 24/M08 A3007 RMK A01 T02401076  RH  012%=      5-min Rain = 0
KHO1 250019Z 30004KT 24/M08 A3007 RMK A01 T02401083  RH  011%=      5-min Rain = 0
KHO1 250020Z 30004KT 24/M08 A3007 RMK A01 T02401080  RH  011%=      5-min Rain = 0
KHO1 250021Z 30003KT 24/M08 A3007 RMK A01 T02401079  RH  011%=      5-min Rain = 0
KHO1 250022Z 32002KT 24/M08 A3007 RMK A01 T02401077  RH  011%=      5-min Rain = 0
KHO1 250023Z 32002KT 24/M07 A3007 RMK A01 T02411073  RH  012%=      5-min Rain = 0
KHO1 250024Z 31003KT 24/M08 A3007 RMK A01 T02411078  RH  011%=      5-min Rain = 0
KHO1 250025Z 31003KT 24/M08 A3007 RMK A01 T02411077  RH  011%=      5-min Rain = 0
KHO1 250026Z 33003KT 24/M08 A3007 RMK A01 T02411075  RH  012%=      5-min Rain = 0
KHO1 250027Z 33003KT 24/M08 A3007 RMK A01 T02411079  RH  011%=      5-min Rain = 0
KHO1 250028Z 33002KT 24/M08 A3007 RMK A01 T02401079  RH  011%=      5-min Rain = 0
KHO1 250029Z 33002KT 24/M07 A3007 RMK A01 T02401072  RH  012%=      5-min Rain = 0
KHO1 250030Z 33003KT 24/M07 A3007 RMK A01 T02401072  RH  012%=      5-min Rain = 0
KHO1 250031Z 33002KT 24/M08 A3007 RMK A01 T02391078  RH  011%=      5-min Rain = 0
KHO1 250032Z 33003KT 24/M08 A3007 RMK A01 T02391077  RH  012%=      5-min Rain = 0
KHO1 250033Z 34003KT 24/M08 A3007 RMK A01 T02381079  RH  011%=      5-min Rain = 0
KHO1 250034Z 33003KT 24/M08 A3007 RMK A01 T02381078  RH  012%=      5-min Rain = 0
KHO1 250035Z 33003KT 24/M08 A3007 RMK A01 T02371077  RH  012%=      5-min Rain = 0
KHO1 250036Z 33002KT 24/M08 A3007 RMK A01 T02371078  RH  012%=      5-min Rain = 0
KHO1 250037Z 33002KT 24/M08 A3007 RMK A01 T02371078  RH  012%=      5-min Rain = 0
KHO1 250038Z 34002KT 24/M08 A3007 RMK A01 T02371077  RH  012%=      5-min Rain = 0
KHO1 250039Z 34002KT 24/M07 A3007 RMK A01 T02371073  RH  012%=      5-min Rain = 0
KHO1 250040Z 34002KT 24/M07 A3007 RMK A01 T02361074  RH  012%=      5-min Rain = 0
KHO1 250041Z 35002KT 24/M08 A3007 RMK A01 T02351078  RH  012%=      5-min Rain = 0
KHO1 250042Z 35003KT 24/M08 A3007 RMK A01 T02351078  RH  012%=      5-min Rain = 0
KHO1 250043Z 35002KT 23/M08 A3007 RMK A01 T02341077  RH  012%=      5-min Rain = 0
KHO1 250044Z 00002KT 23/M07 A3007 RMK A01 T02341074  RH  012%=      5-min Rain = 0
KHO1 250045Z 01002KT 23/M08 A3007 RMK A01 T02341078  RH  012%=      5-min Rain = 0
KHO1 250046Z 01002KT 23/M08 A3007 RMK A01 T02331080  RH  012%=      5-min Rain = 0
KHO1 250047Z 01003KT 23/M08 A3007 RMK A01 T02321077  RH  012%=      5-min Rain = 0
KHO1 250048Z 01003KT 23/M08 A3007 RMK A01 T02301077  RH  012%=      5-min Rain = 0
KHO1 250049Z 01003KT 23/M07 A3007 RMK A01 T02281074  RH  013%=      5-min Rain = 0
KHO1 250050Z 01003KT 23/M07 A3007 RMK A01 T02271072  RH  013%=      5-min Rain = 0
KHO1 250051Z 01003KT 23/M07 A3007 RMK A01 T02251072  RH  013%=      5-min Rain = 0
KHO1 250052Z 01002KT 22/M07 A3007 RMK A01 T02241074  RH  013%=      5-min Rain = 0
KHO1 250053Z 01002KT 22/M08 A3007 RMK A01 T02241078  RH  013%=      5-min Rain = 0
KHO1 250054Z 01002KT 22/M08 A3007 RMK A01 T02241079  RH  012%=      5-min Rain = 0
KHO1 250055Z 00002KT 22/M08 A3007 RMK A01 T02241078  RH  013%=      5-min Rain = 0
KHO1 250056Z 00002KT 22/M08 A3007 RMK A01 T02241078  RH  013%=      5-min Rain = 0
KHO1 250057Z 00002KT 22/M08 A3007 RMK A01 T02241079  RH  013%=      5-min Rain = 0
KHO1 250058Z 00001KT 22/M08 A3007 RMK A01 T02241081  RH  012%=      5-min Rain = 0
KHO1 250059Z 01002KT 23/M08 A3007 RMK A01 T02251082  RH  012%=      5-min Rain = 0
KHO1 250100Z 01001KT 23/M08 A3007 RMK A01 T02251080  RH  012%=      5-min Rain = 0
KHO1 250101Z 01002KT 22/M08 A3007 RMK A01 T02241078  RH  013%=      5-min Rain = 0
KHO1 250102Z 01002KT 22/M08 A3007 RMK A01 T02231079  RH  013%=      5-min Rain = 0
KHO1 250103Z 00002KT 22/M08 A3007 RMK A01 T02221078  RH  013%=      5-min Rain = 0
KHO1 250104Z 01002KT 22/M08 A3007 RMK A01 T02211076  RH  013%=      5-min Rain = 0
KHO1 250105Z 00003KT 22/M08 A3007 RMK A01 T02201075  RH  013%=      5-min Rain = 0
KHO1 250106Z 00003KT 22/M08 A3007 RMK A01 T02181076  RH  013%=      5-min Rain = 0
KHO1 250107Z 01003KT 22/M08 A3007 RMK A01 T02171077  RH  013%=      5-min Rain = 0
KHO1 250108Z 00003KT 22/M08 A3007 RMK A01 T02161076  RH  013%=      5-min Rain = 0
KHO1 250109Z 00003KT 22/M07 A3007 RMK A01 T02151073  RH  014%=      5-min Rain = 0
KHO1 250110Z 00002KT 21/M07 A3007 RMK A01 T02131072  RH  014%=      5-min Rain = 0
KHO1 250111Z 00002KT 21/M07 A3007 RMK A01 T02121073  RH  014%=      5-min Rain = 0
KHO1 250112Z 00003KT 21/M07 A3007 RMK A01 T02111074  RH  014%=      5-min Rain = 0
KHO1 250113Z 00002KT 21/M07 A3007 RMK A01 T02111074  RH  014%=      5-min Rain = 0
KHO1 250114Z 00002KT 21/M07 A3007 RMK A01 T02101074  RH  014%=      5-min Rain = 0
KHO1 250115Z 00002KT 21/M08 A3007 RMK A01 T02101078  RH  014%=      5-min Rain = 0
KHO1 250116Z 00003KT 21/M08 A3007 RMK A01 T02101077  RH  014%=      5-min Rain = 0
KHO1 250117Z 00003KT 21/M08 A3007 RMK A01 T02101076  RH  014%=      5-min Rain = 0
KHO1 250118Z 00003KT 21/M08 A3007 RMK A01 T02101076  RH  014%=      5-min Rain = 0
KHO1 250119Z 00003KT 21/M08 A3007 RMK A01 T02091075  RH  014%=      5-min Rain = 0
KHO1 250120Z 00003KT 21/M07 A3007 RMK A01 T02081074  RH  014%=      5-min Rain = 0
KHO1 250121Z 00003KT 21/M07 A3007 RMK A01 T02071072  RH  015%=      5-min Rain = 0
KHO1 250122Z 00003KT 21/M07 A3007 RMK A01 T02051072  RH  015%=      5-min Rain = 0
KHO1 250123Z 00003KT 20/M07 A3007 RMK A01 T02041073  RH  015%=      5-min Rain = 0
KHO1 250124Z 01003KT 20/M07 A3007 RMK A01 T02031072  RH  015%=      5-min Rain = 0
KHO1 250125Z 01003KT 20/M07 A3007 RMK A01 T02031072  RH  015%=      5-min Rain = 0
KHO1 250126Z 01003KT 20/M07 A3007 RMK A01 T02031071  RH  015%=      5-min Rain = 0
KHO1 250127Z 01003KT 20/M07 A3008 RMK A01 T02031068  RH  016%=      5-min Rain = 0
KHO1 250128Z 01004KT 20/M06 A3008 RMK A01 T02021061  RH  016%=      5-min Rain = 0
KHO1 250129Z 01004KT 20/M06 A3008 RMK A01 T01991059  RH  017%=      5-min Rain = 0
KHO1 250130Z 01004KT 20/M06 A3008 RMK A01 T01971059  RH  017%=      5-min Rain = 0
KHO1 250131Z 01004KT 20/M06 A3008 RMK A01 T01951059  RH  017%=      5-min Rain = 0
KHO1 250132Z 01004KT 19/M06 A3008 RMK A01 T01941058  RH  018%=      5-min Rain = 0
KHO1 250133Z 01004KT 19/M06 A3008 RMK A01 T01931064  RH  017%=      5-min Rain = 0
KHO1 250134Z 02004KT 19/M07 A3008 RMK A01 T01941067  RH  016%=      5-min Rain = 0
KHO1 250135Z 02004KT 20/M07 A3008 RMK A01 T01971067  RH  016%=      5-min Rain = 0
KHO1 250136Z 02003KT 20/M06 A3008 RMK A01 T01971062  RH  017%=      5-min Rain = 0
KHO1 250137Z 03003KT 20/M07 A3008 RMK A01 T01971065  RH  016%=      5-min Rain = 0
KHO1 250138Z 03003KT 20/M07 A3008 RMK A01 T01961067  RH  016%=      5-min Rain = 0
KHO1 250139Z 03003KT 20/M07 A3008 RMK A01 T01961068  RH  016%=      5-min Rain = 0
KHO1 250140Z 03004KT 20/M07 A3008 RMK A01 T01961069  RH  016%=      5-min Rain = 0
KHO1 250141Z 03003KT 20/M07 A3008 RMK A01 T01961069  RH  016%=      5-min Rain = 0
KHO1 250142Z 04003KT 20/M07 A3008 RMK A01 T01961067  RH  016%=      5-min Rain = 0
KHO1 250143Z 03003KT 20/M07 A3008 RMK A01 T01951067  RH  016%=      5-min Rain = 0
KHO1 250144Z 03003KT 20/M07 A3008 RMK A01 T01951066  RH  017%=      5-min Rain = 0
KHO1 250145Z 03004KT 19/M07 A3008 RMK A01 T01941065  RH  017%=      5-min Rain = 0
KHO1 250146Z 03004KT 19/M06 A3008 RMK A01 T01931058  RH  018%=      5-min Rain = 0
KHO1 250147Z 03005KT 19/M06 A3008 RMK A01 T01911055  RH  018%=      5-min Rain = 0
KHO1 250148Z 03005KT 19/M05 A3008 RMK A01 T01891054  RH  019%=      5-min Rain = 0
KHO1 250149Z 03005KT 19/M05 A3009 RMK A01 T01881053  RH  019%=      5-min Rain = 0
KHO1 250150Z 03005KT 19/M05 A3009 RMK A01 T01881051  RH  019%=      5-min Rain = 0
KHO1 250151Z 04004KT 19/M05 A3009 RMK A01 T01871051  RH  019%=      5-min Rain = 0
KHO1 250152Z 04004KT 19/M05 A3009 RMK A01 T01871049  RH  020%=      5-min Rain = 0
KHO1 250153Z 03004KT 19/M05 A3009 RMK A01 T01861048  RH  020%=      5-min Rain = 0
KHO1 250154Z 03004KT 19/M05 A3009 RMK A01 T01871048  RH  020%=      5-min Rain = 0
KHO1 250155Z 03004KT 19/M05 A3009 RMK A01 T01871049  RH  020%=      5-min Rain = 0
KHO1 250156Z 02004KT 19/M05 A3009 RMK A01 T01871049  RH  020%=      5-min Rain = 0
KHO1 250157Z 02004KT 19/M05 A3009 RMK A01 T01861045  RH  021%=      5-min Rain = 0
KHO1 250158Z 02004KT 18/M04 A3009 RMK A01 T01831042  RH  021%=      5-min Rain = 0
KHO1 250159Z 02004KT 18/M04 A3009 RMK A01 T01791038  RH  022%=      5-min Rain = 0
KHO1 250200Z 02003KT 18/M04 A3009 RMK A01 T01771037  RH  023%=      5-min Rain = 0
KHO1 250201Z 02003KT 18/M04 A3009 RMK A01 T01751037  RH  023%=      5-min Rain = 0
KHO1 250202Z 02003KT 17/M04 A3009 RMK A01 T01741037  RH  023%=      5-min Rain = 0
KHO1 250203Z 02003KT 17/M04 A3009 RMK A01 T01731038  RH  023%=      5-min Rain = 0
KHO1 250204Z 02003KT 17/M04 A3009 RMK A01 T01731042  RH  023%=      5-min Rain = 0
KHO1 250205Z 02003KT 17/M04 A3009 RMK A01 T01721042  RH  023%=      5-min Rain = 0
KHO1 250206Z 02003KT 17/M05 A301 RMK A01 T01721045  RH  022%=      5-min Rain = 0
KHO1 250207Z 02003KT 17/M05 A301 RMK A01 T01721047  RH  022%=      5-min Rain = 0
KHO1 250208Z 02002KT 17/M05 A301 RMK A01 T01731049  RH  022%=      5-min Rain = 0
KHO1 250209Z 02002KT 17/M05 A301 RMK A01 T01741051  RH  021%=      5-min Rain = 0
KHO1 250210Z 02002KT 17/M05 A301 RMK A01 T01741053  RH  021%=      5-min Rain = 0
KHO1 250211Z 02002KT 18/M05 A301 RMK A01 T01761054  RH  020%=      5-min Rain = 0
KHO1 250212Z 02002KT 18/M05 A301 RMK A01 T01771054  RH  020%=      5-min Rain = 0
KHO1 250213Z 02002KT 18/M05 A301 RMK A01 T01781054  RH  020%=      5-min Rain = 0
KHO1 250214Z 02002KT 18/M05 A301 RMK A01 T01791052  RH  020%=      5-min Rain = 0
KHO1 250215Z 02002KT 18/M05 A301 RMK A01 T01791050  RH  021%=      5-min Rain = 0
KHO1 250216Z 02002KT 18/M05 A301 RMK A01 T01781048  RH  021%=      5-min Rain = 0
KHO1 250217Z 02002KT 18/M05 A301 RMK A01 T01771046  RH  021%=      5-min Rain = 0
KHO1 250218Z 02002KT 18/M05 A301 RMK A01 T01761046  RH  022%=      5-min Rain = 0
KHO1 250219Z 02001KT 18/M05 A301 RMK A01 T01751045  RH  022%=      5-min Rain = 0
KHO1 250220Z 02002KT 18/M05 A301 RMK A01 T01751045  RH  022%=      5-min Rain = 0
KHO1 250221Z 02001KT 17/M04 A301 RMK A01 T01741044  RH  022%=      5-min Rain = 0
KHO1 250222Z 02001KT 17/M04 A301 RMK A01 T01741043  RH  022%=      5-min Rain = 0
KHO1 250223Z 02001KT 17/M04 A301 RMK A01 T01731043  RH  023%=      5-min Rain = 0
KHO1 250224Z 02001KT 17/M04 A3011 RMK A01 T01721043  RH  023%=      5-min Rain = 0
KHO1 250225Z 02001KT 17/M04 A3011 RMK A01 T01711041  RH  023%=      5-min Rain = 0
KHO1 250226Z 02001KT 17/M04 A3011 RMK A01 T01691042  RH  023%=      5-min Rain = 0
KHO1 250227Z 02001KT 17/M04 A3011 RMK A01 T01681042  RH  024%=      5-min Rain = 0
KHO1 250228Z 01002KT 17/M04 A3011 RMK A01 T01671042  RH  024%=      5-min Rain = 0
KHO1 250229Z 35003KT 17/M04 A3011 RMK A01 T01661041  RH  024%=      5-min Rain = 0
KHO1 250230Z 35005KT 16/M04 A3011 RMK A01 T01641040  RH  024%=      5-min Rain = 0
KHO1 250231Z 35004KT 16/M04 A3011 RMK A01 T01621037  RH  025%=      5-min Rain = 0
KHO1 250232Z 36003KT 16/M04 A3011 RMK A01 T01611037  RH  025%=      5-min Rain = 0
KHO1 250233Z 36003KT 16/M04 A3011 RMK A01 T01601041  RH  025%=      5-min Rain = 0
KHO1 250234Z 35003KT 16/M04 A3012 RMK A01 T01601044  RH  024%=      5-min Rain = 0
KHO1 250235Z 36002KT 16/M04 A3012 RMK A01 T01611044  RH  024%=      5-min Rain = 0
KHO1 250236Z 36002KT 16/M05 A3012 RMK A01 T01611047  RH  024%=      5-min Rain = 0
KHO1 250237Z 01001KT 16/M05 A3012 RMK A01 T01611047  RH  024%=      5-min Rain = 0
KHO1 250238Z 01001KT 16/M05 A3012 RMK A01 T01611046  RH  024%=      5-min Rain = 0
KHO1 250239Z 01001KT 16/M05 A3012 RMK A01 T01611047  RH  024%=      5-min Rain = 0
KHO1 250240Z 01001KT 16/M05 A3012 RMK A01 T01611049  RH  023%=      5-min Rain = 0
KHO1 250241Z 01001KT 16/M05 A3012 RMK A01 T01601048  RH  023%=      5-min Rain = 0
KHO1 250242Z 01001KT 16/M05 A3012 RMK A01 T01601050  RH  023%=      5-min Rain = 0
KHO1 250243Z 01001KT 16/M05 A3012 RMK A01 T01601051  RH  023%=      5-min Rain = 0
KHO1 250244Z 01000KT 16/M05 A3012 RMK A01 T01591049  RH  024%=      5-min Rain = 0
KHO1 250245Z 01000KT 16/M05 A3012 RMK A01 T01591048  RH  024%=      5-min Rain = 0
KHO1 250246Z 01000KT 16/M05 A3012 RMK A01 T01581048  RH  024%=      5-min Rain = 0
KHO1 250247Z 01000KT 16/M05 A3012 RMK A01 T01581048  RH  024%=      5-min Rain = 0
KHO1 250248Z 01001KT 16/M05 A3012 RMK A01 T01571048  RH  024%=      5-min Rain = 0
KHO1 250249Z 01001KT 16/M05 A3012 RMK A01 T01571047  RH  024%=      5-min Rain = 0
KHO1 250250Z 35002KT 16/M04 A3012 RMK A01 T01561039  RH  026%=      5-min Rain = 0
KHO1 250251Z 34001KT 16/M04 A3012 RMK A01 T01551043  RH  025%=      5-min Rain = 0
KHO1 250252Z 34002KT 15/M05 A3012 RMK A01 T01541047  RH  025%=      5-min Rain = 0
KHO1 250253Z 36002KT 15/M05 A3012 RMK A01 T01541050  RH  024%=      5-min Rain = 0
KHO1 250254Z 00003KT 16/M05 A3012 RMK A01 T01551050  RH  024%=      5-min Rain = 0
KHO1 250255Z 01003KT 16/M05 A3012 RMK A01 T01571050  RH  024%=      5-min Rain = 0
KHO1 250256Z 00003KT 16/M05 A3012 RMK A01 T01581047  RH  024%=      5-min Rain = 0
KHO1 250257Z 00004KT 16/M05 A3012 RMK A01 T01581046  RH  024%=      5-min Rain = 0
KHO1 250258Z 00004KT 16/M04 A3012 RMK A01 T01591043  RH  025%=      5-min Rain = 0
KHO1 250259Z 00004KT 16/M04 A3012 RMK A01 T01581040  RH  025%=      5-min Rain = 0
KHO1 250300Z 00004KT 16/M04 A3013 RMK A01 T01571038  RH  026%=      5-min Rain = 0
KHO1 250301Z 00004KT 16/M04 A3013 RMK A01 T01551036  RH  026%=      5-min Rain = 0
KHO1 250302Z 00004KT 15/M04 A3013 RMK A01 T01541036  RH  027%=      5-min Rain = 0
KHO1 250303Z 01004KT 15/M04 A3013 RMK A01 T01541041  RH  026%=      5-min Rain = 0
KHO1 250304Z 02004KT 15/M04 A3013 RMK A01 T01541042  RH  026%=      5-min Rain = 0
KHO1 250305Z 02004KT 16/M04 A3013 RMK A01 T01551041  RH  026%=      5-min Rain = 0
KHO1 250306Z 02004KT 15/M04 A3013 RMK A01 T01541037  RH  027%=      5-min Rain = 0
KHO1 250307Z 02004KT 15/M04 A3013 RMK A01 T01541038  RH  026%=      5-min Rain = 0
KHO1 250308Z 02004KT 15/M04 A3013 RMK A01 T01531039  RH  026%=      5-min Rain = 0
KHO1 250309Z 02004KT 15/M04 A3013 RMK A01 T01521042  RH  026%=      5-min Rain = 0
KHO1 250310Z 02004KT 15/M05 A3013 RMK A01 T01511045  RH  025%=      5-min Rain = 0
KHO1 250311Z 02004KT 15/M05 A3013 RMK A01 T01511045  RH  025%=      5-min Rain = 0
KHO1 250312Z 02004KT 15/M05 A3013 RMK A01 T01521048  RH  025%=      5-min Rain = 0
KHO1 250313Z 01004KT 15/M05 A3013 RMK A01 T01521046  RH  025%=      5-min Rain = 0
KHO1 250314Z 01004KT 15/M04 A3013 RMK A01 T01511038  RH  027%=      5-min Rain = 0
KHO1 250315Z 00004KT 15/M03 A3013 RMK A01 T01491033  RH  028%=      5-min Rain = 0
KHO1 250316Z 35005KT 15/M04 A3013 RMK A01 T01461035  RH  028%=      5-min Rain = 0
KHO1 250317Z 36005KT 14/M05 A3013 RMK A01 T01441045  RH  027%=      5-min Rain = 0
KHO1 250318Z 36005KT 15/M04 A3013 RMK A01 T01451043  RH  027%=      5-min Rain = 0
KHO1 250319Z 00005KT 15/M05 A3013 RMK A01 T01451048  RH  026%=      5-min Rain = 0
KHO1 250320Z 01004KT 15/M05 A3013 RMK A01 T01481050  RH  025%=      5-min Rain = 0
KHO1 250321Z 02005KT 15/M05 A3013 RMK A01 T01491052  RH  024%=      5-min Rain = 0
KHO1 250322Z 02004KT 15/M05 A3013 RMK A01 T01501054  RH  024%=      5-min Rain = 0
KHO1 250323Z 02004KT 15/M05 A3013 RMK A01 T01501052  RH  024%=      5-min Rain = 0
KHO1 250324Z 02004KT 15/M05 A3014 RMK A01 T01511050  RH  025%=      5-min Rain = 0
KHO1 250325Z 00005KT 15/M04 A3014 RMK A01 T01501044  RH  026%=      5-min Rain = 0
KHO1 250326Z 35006KT 15/M04 A3014 RMK A01 T01471039  RH  027%=      5-min Rain = 0
KHO1 250327Z 35006KT 14/M04 A3014 RMK A01 T01431039  RH  028%=      5-min Rain = 0
KHO1 250328Z 35006KT 14/M04 A3014 RMK A01 T01411040  RH  028%=      5-min Rain = 0
KHO1 250329Z 36005KT 14/M04 A3014 RMK A01 T01401042  RH  028%=      5-min Rain = 0
KHO1 250330Z 00005KT 14/M05 A3014 RMK A01 T01401045  RH  027%=      5-min Rain = 0
KHO1 250331Z 01004KT 14/M05 A3014 RMK A01 T01421046  RH  027%=      5-min Rain = 0
KHO1 250332Z 02004KT 14/M05 A3014 RMK A01 T01431046  RH  027%=      5-min Rain = 0
KHO1 250333Z 02004KT 14/M05 A3014 RMK A01 T01431047  RH  027%=      5-min Rain = 0
KHO1 250334Z 02005KT 14/M05 A3014 RMK A01 T01431049  RH  026%=      5-min Rain = 0
KHO1 250335Z 02005KT 14/M05 A3014 RMK A01 T01441048  RH  026%=      5-min Rain = 0
KHO1 250336Z 00005KT 14/M04 A3014 RMK A01 T01431042  RH  027%=      5-min Rain = 0
KHO1 250337Z 35006KT 14/M04 A3014 RMK A01 T01401039  RH  029%=      5-min Rain = 0
KHO1 250338Z 00005KT 14/M04 A3014 RMK A01 T01371039  RH  029%=      5-min Rain = 0
KHO1 250339Z 01005KT 14/M04 A3014 RMK A01 T01361043  RH  029%=      5-min Rain = 0
KHO1 250340Z 01004KT 14/M05 A3014 RMK A01 T01361046  RH  028%=      5-min Rain = 0
KHO1 250341Z 01004KT 14/M05 A3014 RMK A01 T01371047  RH  027%=      5-min Rain = 0
KHO1 250342Z 02004KT 14/M05 A3014 RMK A01 T01381047  RH  027%=      5-min Rain = 0
KHO1 250343Z 02003KT 14/M05 A3014 RMK A01 T01381046  RH  028%=      5-min Rain = 0
KHO1 250344Z 02003KT 14/M04 A3014 RMK A01 T01391044  RH  028%=      5-min Rain = 0
KHO1 250345Z 02003KT 14/M04 A3014 RMK A01 T01381041  RH  029%=      5-min Rain = 0
KHO1 250346Z 02003KT 14/M04 A3014 RMK A01 T01371040  RH  029%=      5-min Rain = 0
KHO1 250347Z 01003KT 14/M04 A3014 RMK A01 T01351041  RH  029%=      5-min Rain = 0
KHO1 250348Z 02002KT 13/M04 A3014 RMK A01 T01341043  RH  029%=      5-min Rain = 0
KHO1 250349Z 02002KT 13/M04 A3014 RMK A01 T01341043  RH  029%=      5-min Rain = 0
KHO1 250350Z 02003KT 13/M04 A3014 RMK A01 T01331041  RH  029%=      5-min Rain = 0
KHO1 250351Z 02002KT 13/M04 A3014 RMK A01 T01321039  RH  030%=      5-min Rain = 0
KHO1 250352Z 03000KT 13/M04 A3014 RMK A01 T01291038  RH  031%=      5-min Rain = 0
KHO1 250353Z 04001KT 13/M04 A3014 RMK A01 T01261040  RH  031%=      5-min Rain = 0
KHO1 250354Z 04002KT 13/M04 A3014 RMK A01 T01261040  RH  031%=      5-min Rain = 0
KHO1 250355Z 04001KT 13/M04 A3014 RMK A01 T01261041  RH  031%=      5-min Rain = 0
KHO1 250356Z 05002KT 13/M04 A3014 RMK A01 T01281041  RH  031%=      5-min Rain = 0
KHO1 250357Z 05002KT 13/M04 A3014 RMK A01 T01291043  RH  030%=      5-min Rain = 0
KHO1 250358Z 05002KT 13/M04 A3014 RMK A01 T01301044  RH  030%=      5-min Rain = 0
KHO1 250359Z 04003KT 13/M05 A3014 RMK A01 T01301047  RH  029%=      5-min Rain = 0
KHO1 250400Z 03003KT 13/M05 A3015 RMK A01 T01301045  RH  029%=      5-min Rain = 0
KHO1 250401Z 01003KT 13/M04 A3015 RMK A01 T01301042  RH  030%=      5-min Rain = 0
KHO1 250402Z 35003KT 13/M04 A3015 RMK A01 T01301042  RH  030%=      5-min Rain = 0
KHO1 250403Z 33004KT 13/M04 A3015 RMK A01 T01301040  RH  030%=      5-min Rain = 0
KHO1 250404Z 34005KT 13/M04 A3015 RMK A01 T01311041  RH  030%=      5-min Rain = 0
KHO1 250405Z 35004KT 13/M04 A3015 RMK A01 T01311041  RH  030%=      5-min Rain = 0
KHO1 250406Z 00004KT 13/M04 A3015 RMK A01 T01321040  RH  030%=      5-min Rain = 0
KHO1 250407Z 36005KT 13/M04 A3015 RMK A01 T01311042  RH  030%=      5-min Rain = 0
KHO1 250408Z 00005KT 13/M05 A3015 RMK A01 T01311045  RH  029%=      5-min Rain = 0
KHO1 250409Z 01004KT 13/M05 A3015 RMK A01 T01321047  RH  029%=      5-min Rain = 0
KHO1 250410Z 01004KT 13/M05 A3015 RMK A01 T01321047  RH  028%=      5-min Rain = 0
KHO1 250411Z 35004KT 13/M05 A3015 RMK A01 T01321045  RH  029%=      5-min Rain = 0
KHO1 250412Z 35004KT 13/M05 A3015 RMK A01 T01321046  RH  029%=      5-min Rain = 0
KHO1 250413Z 00003KT 13/M05 A3015 RMK A01 T01311045  RH  029%=      5-min Rain = 0
KHO1 250414Z 36004KT 13/M04 A3015 RMK A01 T01311043  RH  030%=      5-min Rain = 0
KHO1 250415Z 36004KT 13/M04 A3015 RMK A01 T01291040  RH  031%=      5-min Rain = 0
KHO1 250416Z 02003KT 13/M04 A3015 RMK A01 T01281040  RH  031%=      5-min Rain = 0
KHO1 250417Z 03003KT 13/M04 A3015 RMK A01 T01281041  RH  031%=      5-min Rain = 0
KHO1 250418Z 02003KT 13/M04 A3015 RMK A01 T01281042  RH  031%=      5-min Rain = 0
KHO1 250419Z 01003KT 13/M04 A3015 RMK A01 T01271041  RH  031%=      5-min Rain = 0
KHO1 250420Z 35004KT 13/M04 A3015 RMK A01 T01261035  RH  033%=      5-min Rain = 0
KHO1 250421Z 35004KT 13/M04 A3015 RMK A01 T01251037  RH  032%=      5-min Rain = 0
KHO1 250422Z 02004KT 13/M04 A3015 RMK A01 T01261037  RH  032%=      5-min Rain = 0
KHO1 250423Z 02004KT 13/M03 A3015 RMK A01 T01261034  RH  033%=      5-min Rain = 0
KHO1 250424Z 02004KT 13/M03 A3015 RMK A01 T01261033  RH  033%=      5-min Rain = 0
KHO1 250425Z 02005KT 13/M04 A3015 RMK A01 T01251037  RH  032%=      5-min Rain = 0
KHO1 250426Z 35005KT 12/M04 A3015 RMK A01 T01241037  RH  032%=      5-min Rain = 0
KHO1 250427Z 34006KT 12/M03 A3015 RMK A01 T01221034  RH  033%=      5-min Rain = 0
KHO1 250428Z 00004KT 12/M03 A3015 RMK A01 T01211029  RH  035%=      5-min Rain = 0
KHO1 250429Z 02004KT 12/M03 A3015 RMK A01 T01211029  RH  035%=      5-min Rain = 0
KHO1 250430Z 03004KT 12/M03 A3015 RMK A01 T01201025  RH  036%=      5-min Rain = 0
KHO1 250431Z 02004KT 12/M03 A3015 RMK A01 T01201028  RH  036%=      5-min Rain = 0
KHO1 250432Z 01004KT 12/M02 A3015 RMK A01 T01191024  RH  037%=      5-min Rain = 0
KHO1 250433Z 36004KT 12/M03 A3015 RMK A01 T01191027  RH  036%=      5-min Rain = 0
KHO1 250434Z 36005KT 12/M03 A3015 RMK A01 T01181030  RH  035%=      5-min Rain = 0
KHO1 250435Z 01005KT 12/M03 A3015 RMK A01 T01191034  RH  034%=      5-min Rain = 0
KHO1 250436Z 00005KT 12/M04 A3015 RMK A01 T01201037  RH  033%=      5-min Rain = 0
KHO1 250437Z 00005KT 12/M04 A3015 RMK A01 T01211041  RH  032%=      5-min Rain = 0
KHO1 250438Z 35005KT 12/M04 A3015 RMK A01 T01221042  RH  032%=      5-min Rain = 0
KHO1 250439Z 35005KT 12/M04 A3015 RMK A01 T01231039  RH  032%=      5-min Rain = 0
KHO1 250440Z 00004KT 12/M04 A3015 RMK A01 T01241042  RH  031%=      5-min Rain = 0
KHO1 250441Z 34004KT 12/M04 A3015 RMK A01 T01241037  RH  032%=      5-min Rain = 0
KHO1 250442Z 35005KT 12/M03 A3015 RMK A01 T01231034  RH  033%=      5-min Rain = 0
KHO1 250443Z 01004KT 12/M03 A3015 RMK A01 T01211031  RH  035%=      5-min Rain = 0
KHO1 250444Z 01005KT 12/M03 A3015 RMK A01 T01191028  RH  036%=      5-min Rain = 0
KHO1 250445Z 01005KT 12/M03 A3015 RMK A01 T01181026  RH  037%=      5-min Rain = 0
KHO1 250446Z 01005KT 12/M02 A3015 RMK A01 T01161023  RH  038%=      5-min Rain = 0
KHO1 250447Z 35005KT 11/M03 A3015 RMK A01 T01131027  RH  037%=      5-min Rain = 0
KHO1 250448Z 35004KT 11/M03 A3015 RMK A01 T01141031  RH  036%=      5-min Rain = 0
KHO1 250449Z 36004KT 12/M03 A3015 RMK A01 T01151029  RH  037%=      5-min Rain = 0
KHO1 250450Z 00005KT 12/M03 A3015 RMK A01 T01151028  RH  037%=      5-min Rain = 0
KHO1 250451Z 00004KT 11/M03 A3015 RMK A01 T01141031  RH  036%=      5-min Rain = 0
KHO1 250452Z 00005KT 11/M03 A3016 RMK A01 T01141034  RH  035%=      5-min Rain = 0
KHO1 250453Z 35005KT 11/M04 A3015 RMK A01 T01141035  RH  035%=      5-min Rain = 0
KHO1 250454Z 35005KT 11/M03 A3016 RMK A01 T01141034  RH  035%=      5-min Rain = 0
KHO1 250455Z 35007KT 11/M03 A3016 RMK A01 T01141033  RH  036%=      5-min Rain = 0
KHO1 250456Z 35008KT 11/M03 A3016 RMK A01 T01121032  RH  036%=      5-min Rain = 0
KHO1 250457Z 35008KT 11/M04 A3016 RMK A01 T01121037  RH  035%=      5-min Rain = 0
KHO1 250458Z 35008KT 11/M04 A3016 RMK A01 T01141041  RH  034%=      5-min Rain = 0
KHO1 250459Z 35009KT 12/M04 A3016 RMK A01 T01161041  RH  033%=      5-min Rain = 0

Page generated in 0.1211 seconds.